<?xml version="1.0" encoding="UTF-8" standalone="no" ?>
<gpx xmlns="http://www.topografix.com/GPX/1/1" xmlns:xsi="http://www.w3.org/2001/XMLSchema-instance" xsi:schemaLocation="http://www.topografix.com/GPX/1/1 http://www.topografix.com/GPX/1/1/gpx.xsd" version="1.1" creator="VisuGPX - https://www.visugpx.com">
  <metadata>
    <name>Randonnée la Salle.</name>
    <desc><![CDATA[  Salle des Fêtes de la Salle- les Fossottes – le Han- Conroye.]]></desc>
  </metadata>
  <trk>
    <name><![CDATA[2018-03-25 16:46:41]]></name>
    <trkseg>
      <trkpt lat="48.32307" lon="6.82742">
        <ele>379.3</ele>
        <time>2018-03-25T11:24:23Z</time>
      </trkpt>
      <trkpt lat="48.32306" lon="6.82748">
        <ele>378.65</ele>
        <time>2018-03-25T11:24:50Z</time>
      </trkpt>
      <trkpt lat="48.32304" lon="6.82743">
        <ele>377.67</ele>
        <time>2018-03-25T11:25:05Z</time>
      </trkpt>
      <trkpt lat="48.32303" lon="6.82741">
        <ele>377.09</ele>
        <time>2018-03-25T11:25:22Z</time>
      </trkpt>
      <trkpt lat="48.32299" lon="6.82748">
        <ele>377.8</ele>
        <time>2018-03-25T11:25:38Z</time>
      </trkpt>
      <trkpt lat="48.32301" lon="6.82751">
        <ele>377.68</ele>
        <time>2018-03-25T11:25:53Z</time>
      </trkpt>
      <trkpt lat="48.32304" lon="6.82748">
        <ele>376.88</ele>
        <time>2018-03-25T11:26:10Z</time>
      </trkpt>
      <trkpt lat="48.32306" lon="6.82751">
        <ele>376.86</ele>
        <time>2018-03-25T11:26:26Z</time>
      </trkpt>
      <trkpt lat="48.32303" lon="6.8276">
        <ele>376.32</ele>
        <time>2018-03-25T11:26:42Z</time>
      </trkpt>
      <trkpt lat="48.32305" lon="6.82757">
        <ele>375.79</ele>
        <time>2018-03-25T11:27:08Z</time>
      </trkpt>
      <trkpt lat="48.32306" lon="6.82754">
        <ele>375.3</ele>
        <time>2018-03-25T11:27:33Z</time>
      </trkpt>
      <trkpt lat="48.32302" lon="6.8275">
        <ele>374.7</ele>
        <time>2018-03-25T11:27:51Z</time>
      </trkpt>
      <trkpt lat="48.323" lon="6.82751">
        <ele>374.43</ele>
        <time>2018-03-25T11:28:07Z</time>
      </trkpt>
      <trkpt lat="48.32297" lon="6.82757">
        <ele>374.67</ele>
        <time>2018-03-25T11:28:26Z</time>
      </trkpt>
      <trkpt lat="48.32295" lon="6.82759">
        <ele>374.31</ele>
        <time>2018-03-25T11:28:43Z</time>
      </trkpt>
      <trkpt lat="48.32303" lon="6.82751">
        <ele>374.8</ele>
        <time>2018-03-25T11:29:01Z</time>
      </trkpt>
      <trkpt lat="48.32309" lon="6.8275">
        <ele>375.26</ele>
        <time>2018-03-25T11:29:17Z</time>
      </trkpt>
      <trkpt lat="48.32309" lon="6.82749">
        <ele>374.27</ele>
        <time>2018-03-25T11:29:38Z</time>
      </trkpt>
      <trkpt lat="48.3231" lon="6.82741">
        <ele>375.05</ele>
        <time>2018-03-25T11:30:00Z</time>
      </trkpt>
      <trkpt lat="48.3231" lon="6.82747">
        <ele>374.48</ele>
        <time>2018-03-25T11:30:15Z</time>
      </trkpt>
      <trkpt lat="48.32309" lon="6.82754">
        <ele>374.8</ele>
        <time>2018-03-25T11:30:33Z</time>
      </trkpt>
      <trkpt lat="48.32305" lon="6.8275">
        <ele>374.02</ele>
        <time>2018-03-25T11:30:48Z</time>
      </trkpt>
      <trkpt lat="48.32302" lon="6.82745">
        <ele>373.58</ele>
        <time>2018-03-25T11:31:01Z</time>
      </trkpt>
      <trkpt lat="48.32293" lon="6.82757">
        <ele>372.77</ele>
        <time>2018-03-25T11:31:17Z</time>
      </trkpt>
      <trkpt lat="48.32282" lon="6.82773">
        <ele>372.25</ele>
        <time>2018-03-25T11:31:37Z</time>
      </trkpt>
      <trkpt lat="48.32275" lon="6.82786">
        <ele>371.27</ele>
        <time>2018-03-25T11:31:52Z</time>
      </trkpt>
      <trkpt lat="48.32271" lon="6.82779">
        <ele>371.57</ele>
        <time>2018-03-25T11:32:07Z</time>
      </trkpt>
      <trkpt lat="48.32262" lon="6.82788">
        <ele>370.14</ele>
        <time>2018-03-25T11:32:22Z</time>
      </trkpt>
      <trkpt lat="48.32254" lon="6.82798">
        <ele>370.41</ele>
        <time>2018-03-25T11:32:42Z</time>
      </trkpt>
      <trkpt lat="48.32251" lon="6.82805">
        <ele>369.72</ele>
        <time>2018-03-25T11:32:50Z</time>
      </trkpt>
      <trkpt lat="48.32251" lon="6.82808">
        <ele>369.05</ele>
        <time>2018-03-25T11:32:52Z</time>
      </trkpt>
      <trkpt lat="48.32251" lon="6.82824">
        <ele>369.58</ele>
        <time>2018-03-25T11:33:05Z</time>
      </trkpt>
      <trkpt lat="48.32238" lon="6.82845">
        <ele>368.49</ele>
        <time>2018-03-25T11:33:23Z</time>
      </trkpt>
      <trkpt lat="48.32222" lon="6.82863">
        <ele>367.52</ele>
        <time>2018-03-25T11:33:40Z</time>
      </trkpt>
      <trkpt lat="48.32209" lon="6.82885">
        <ele>367.22</ele>
        <time>2018-03-25T11:33:57Z</time>
      </trkpt>
      <trkpt lat="48.32194" lon="6.8291">
        <ele>366.49</ele>
        <time>2018-03-25T11:34:16Z</time>
      </trkpt>
      <trkpt lat="48.32186" lon="6.82923">
        <ele>365.88</ele>
        <time>2018-03-25T11:34:26Z</time>
      </trkpt>
      <trkpt lat="48.32176" lon="6.82945">
        <ele>365.69</ele>
        <time>2018-03-25T11:34:45Z</time>
      </trkpt>
      <trkpt lat="48.32174" lon="6.8295">
        <ele>365.31</ele>
        <time>2018-03-25T11:34:51Z</time>
      </trkpt>
      <trkpt lat="48.32173" lon="6.82952">
        <ele>365.35</ele>
        <time>2018-03-25T11:34:53Z</time>
      </trkpt>
      <trkpt lat="48.32169" lon="6.82956">
        <ele>365.42</ele>
        <time>2018-03-25T11:34:57Z</time>
      </trkpt>
      <trkpt lat="48.32164" lon="6.82968">
        <ele>365.52</ele>
        <time>2018-03-25T11:35:06Z</time>
      </trkpt>
      <trkpt lat="48.32162" lon="6.82971">
        <ele>365.17</ele>
        <time>2018-03-25T11:35:08Z</time>
      </trkpt>
      <trkpt lat="48.32151" lon="6.83002">
        <ele>365.5</ele>
        <time>2018-03-25T11:35:29Z</time>
      </trkpt>
      <trkpt lat="48.32144" lon="6.8303">
        <ele>365.97</ele>
        <time>2018-03-25T11:35:48Z</time>
      </trkpt>
      <trkpt lat="48.32144" lon="6.83048">
        <ele>365.73</ele>
        <time>2018-03-25T11:36:02Z</time>
      </trkpt>
      <trkpt lat="48.32147" lon="6.83052">
        <ele>365.29</ele>
        <time>2018-03-25T11:36:11Z</time>
      </trkpt>
      <trkpt lat="48.32151" lon="6.83056">
        <ele>366.04</ele>
        <time>2018-03-25T11:36:15Z</time>
      </trkpt>
      <trkpt lat="48.32162" lon="6.83077">
        <ele>365.27</ele>
        <time>2018-03-25T11:36:32Z</time>
      </trkpt>
      <trkpt lat="48.32171" lon="6.83097">
        <ele>364.99</ele>
        <time>2018-03-25T11:36:48Z</time>
      </trkpt>
      <trkpt lat="48.32181" lon="6.83118">
        <ele>366.01</ele>
        <time>2018-03-25T11:37:07Z</time>
      </trkpt>
      <trkpt lat="48.3219" lon="6.83129">
        <ele>364.99</ele>
        <time>2018-03-25T11:37:19Z</time>
      </trkpt>
      <trkpt lat="48.32198" lon="6.83132">
        <ele>364.97</ele>
        <time>2018-03-25T11:37:28Z</time>
      </trkpt>
      <trkpt lat="48.32211" lon="6.8313">
        <ele>364.3</ele>
        <time>2018-03-25T11:37:42Z</time>
      </trkpt>
      <trkpt lat="48.32214" lon="6.83131">
        <ele>364.32</ele>
        <time>2018-03-25T11:37:47Z</time>
      </trkpt>
      <trkpt lat="48.32218" lon="6.83131">
        <ele>363.73</ele>
        <time>2018-03-25T11:37:51Z</time>
      </trkpt>
      <trkpt lat="48.32229" lon="6.83134">
        <ele>363.51</ele>
        <time>2018-03-25T11:38:01Z</time>
      </trkpt>
      <trkpt lat="48.32232" lon="6.83135">
        <ele>363.07</ele>
        <time>2018-03-25T11:38:04Z</time>
      </trkpt>
      <trkpt lat="48.32246" lon="6.83143">
        <ele>362.36</ele>
        <time>2018-03-25T11:38:19Z</time>
      </trkpt>
      <trkpt lat="48.32262" lon="6.83152">
        <ele>362.6</ele>
        <time>2018-03-25T11:38:35Z</time>
      </trkpt>
      <trkpt lat="48.32265" lon="6.83158">
        <ele>362.64</ele>
        <time>2018-03-25T11:38:40Z</time>
      </trkpt>
      <trkpt lat="48.32273" lon="6.83168">
        <ele>362.24</ele>
        <time>2018-03-25T11:38:49Z</time>
      </trkpt>
      <trkpt lat="48.32287" lon="6.83179">
        <ele>362.43</ele>
        <time>2018-03-25T11:39:06Z</time>
      </trkpt>
      <trkpt lat="48.323" lon="6.83199">
        <ele>361.7</ele>
        <time>2018-03-25T11:39:23Z</time>
      </trkpt>
      <trkpt lat="48.32304" lon="6.83208">
        <ele>362.81</ele>
        <time>2018-03-25T11:39:29Z</time>
      </trkpt>
      <trkpt lat="48.32305" lon="6.83217">
        <ele>362.11</ele>
        <time>2018-03-25T11:39:36Z</time>
      </trkpt>
      <trkpt lat="48.32316" lon="6.83239">
        <ele>362.42</ele>
        <time>2018-03-25T11:39:51Z</time>
      </trkpt>
      <trkpt lat="48.3232" lon="6.8325">
        <ele>361.85</ele>
        <time>2018-03-25T11:40:06Z</time>
      </trkpt>
      <trkpt lat="48.32322" lon="6.83253">
        <ele>361.56</ele>
        <time>2018-03-25T11:40:09Z</time>
      </trkpt>
      <trkpt lat="48.32324" lon="6.83257">
        <ele>361.58</ele>
        <time>2018-03-25T11:40:13Z</time>
      </trkpt>
      <trkpt lat="48.32331" lon="6.83268">
        <ele>362.51</ele>
        <time>2018-03-25T11:40:25Z</time>
      </trkpt>
      <trkpt lat="48.32337" lon="6.83288">
        <ele>363.89</ele>
        <time>2018-03-25T11:40:41Z</time>
      </trkpt>
      <trkpt lat="48.32345" lon="6.83306">
        <ele>362.77</ele>
        <time>2018-03-25T11:40:55Z</time>
      </trkpt>
      <trkpt lat="48.32349" lon="6.83317">
        <ele>362.03</ele>
        <time>2018-03-25T11:41:03Z</time>
      </trkpt>
      <trkpt lat="48.3235" lon="6.83326">
        <ele>361.19</ele>
        <time>2018-03-25T11:41:09Z</time>
      </trkpt>
      <trkpt lat="48.32354" lon="6.83342">
        <ele>360.64</ele>
        <time>2018-03-25T11:41:23Z</time>
      </trkpt>
      <trkpt lat="48.32362" lon="6.83357">
        <ele>359.84</ele>
        <time>2018-03-25T11:41:39Z</time>
      </trkpt>
      <trkpt lat="48.32363" lon="6.83368">
        <ele>360.8</ele>
        <time>2018-03-25T11:41:52Z</time>
      </trkpt>
      <trkpt lat="48.32365" lon="6.83373">
        <ele>360.41</ele>
        <time>2018-03-25T11:42:05Z</time>
      </trkpt>
      <trkpt lat="48.32369" lon="6.83375">
        <ele>360.38</ele>
        <time>2018-03-25T11:42:22Z</time>
      </trkpt>
      <trkpt lat="48.32369" lon="6.83375">
        <ele>360.59</ele>
        <time>2018-03-25T11:42:27Z</time>
      </trkpt>
      <trkpt lat="48.3237" lon="6.83375">
        <ele>359.96</ele>
        <time>2018-03-25T11:42:41Z</time>
      </trkpt>
      <trkpt lat="48.32368" lon="6.83375">
        <ele>360.37</ele>
        <time>2018-03-25T11:42:45Z</time>
      </trkpt>
      <trkpt lat="48.32362" lon="6.83376">
        <ele>359.86</ele>
        <time>2018-03-25T11:43:08Z</time>
      </trkpt>
      <trkpt lat="48.32357" lon="6.83373">
        <ele>358.89</ele>
        <time>2018-03-25T11:43:32Z</time>
      </trkpt>
      <trkpt lat="48.32367" lon="6.83368">
        <ele>360.01</ele>
        <time>2018-03-25T11:43:48Z</time>
      </trkpt>
      <trkpt lat="48.32377" lon="6.8338">
        <ele>360.4</ele>
        <time>2018-03-25T11:44:02Z</time>
      </trkpt>
      <trkpt lat="48.32379" lon="6.83385">
        <ele>360.19</ele>
        <time>2018-03-25T11:44:05Z</time>
      </trkpt>
      <trkpt lat="48.32384" lon="6.83403">
        <ele>360.3</ele>
        <time>2018-03-25T11:44:19Z</time>
      </trkpt>
      <trkpt lat="48.32386" lon="6.83407">
        <ele>360.02</ele>
        <time>2018-03-25T11:44:21Z</time>
      </trkpt>
      <trkpt lat="48.32397" lon="6.83432">
        <ele>359.43</ele>
        <time>2018-03-25T11:44:36Z</time>
      </trkpt>
      <trkpt lat="48.32401" lon="6.8344">
        <ele>359.14</ele>
        <time>2018-03-25T11:44:42Z</time>
      </trkpt>
      <trkpt lat="48.3241" lon="6.83462">
        <ele>359.42</ele>
        <time>2018-03-25T11:44:56Z</time>
      </trkpt>
      <trkpt lat="48.32422" lon="6.8348">
        <ele>359.56</ele>
        <time>2018-03-25T11:45:11Z</time>
      </trkpt>
      <trkpt lat="48.32434" lon="6.8349">
        <ele>359.54</ele>
        <time>2018-03-25T11:45:26Z</time>
      </trkpt>
      <trkpt lat="48.32451" lon="6.83511">
        <ele>359.03</ele>
        <time>2018-03-25T11:45:47Z</time>
      </trkpt>
      <trkpt lat="48.32469" lon="6.83528">
        <ele>357.95</ele>
        <time>2018-03-25T11:46:07Z</time>
      </trkpt>
      <trkpt lat="48.32474" lon="6.83533">
        <ele>358.11</ele>
        <time>2018-03-25T11:46:13Z</time>
      </trkpt>
      <trkpt lat="48.32489" lon="6.83543">
        <ele>358.14</ele>
        <time>2018-03-25T11:46:29Z</time>
      </trkpt>
      <trkpt lat="48.32508" lon="6.83556">
        <ele>357.3</ele>
        <time>2018-03-25T11:46:47Z</time>
      </trkpt>
      <trkpt lat="48.32522" lon="6.83562">
        <ele>357.29</ele>
        <time>2018-03-25T11:47:05Z</time>
      </trkpt>
      <trkpt lat="48.3254" lon="6.83575">
        <ele>355.91</ele>
        <time>2018-03-25T11:47:24Z</time>
      </trkpt>
      <trkpt lat="48.32551" lon="6.83585">
        <ele>356.03</ele>
        <time>2018-03-25T11:47:35Z</time>
      </trkpt>
      <trkpt lat="48.32564" lon="6.83595">
        <ele>355.61</ele>
        <time>2018-03-25T11:47:49Z</time>
      </trkpt>
      <trkpt lat="48.32583" lon="6.83611">
        <ele>353.85</ele>
        <time>2018-03-25T11:48:07Z</time>
      </trkpt>
      <trkpt lat="48.32604" lon="6.83618">
        <ele>352.14</ele>
        <time>2018-03-25T11:48:26Z</time>
      </trkpt>
      <trkpt lat="48.32617" lon="6.83622">
        <ele>350.21</ele>
        <time>2018-03-25T11:48:42Z</time>
      </trkpt>
      <trkpt lat="48.32635" lon="6.83633">
        <ele>349.88</ele>
        <time>2018-03-25T11:49:02Z</time>
      </trkpt>
      <trkpt lat="48.32643" lon="6.83629">
        <ele>346.87</ele>
        <time>2018-03-25T11:49:19Z</time>
      </trkpt>
      <trkpt lat="48.32641" lon="6.83616">
        <ele>346.61</ele>
        <time>2018-03-25T11:49:37Z</time>
      </trkpt>
      <trkpt lat="48.3264" lon="6.836">
        <ele>345.78</ele>
        <time>2018-03-25T11:49:54Z</time>
      </trkpt>
      <trkpt lat="48.32633" lon="6.83596">
        <ele>346.43</ele>
        <time>2018-03-25T11:50:32Z</time>
      </trkpt>
      <trkpt lat="48.32634" lon="6.83589">
        <ele>345.53</ele>
        <time>2018-03-25T11:51:05Z</time>
      </trkpt>
      <trkpt lat="48.32645" lon="6.83567">
        <ele>344.86</ele>
        <time>2018-03-25T11:51:22Z</time>
      </trkpt>
      <trkpt lat="48.32658" lon="6.83551">
        <ele>345.39</ele>
        <time>2018-03-25T11:51:36Z</time>
      </trkpt>
      <trkpt lat="48.3267" lon="6.83535">
        <ele>345.49</ele>
        <time>2018-03-25T11:51:54Z</time>
      </trkpt>
      <trkpt lat="48.32677" lon="6.83515">
        <ele>345.02</ele>
        <time>2018-03-25T11:52:11Z</time>
      </trkpt>
      <trkpt lat="48.32673" lon="6.83504">
        <ele>345.37</ele>
        <time>2018-03-25T11:52:29Z</time>
      </trkpt>
      <trkpt lat="48.32664" lon="6.83485">
        <ele>346.1</ele>
        <time>2018-03-25T11:52:45Z</time>
      </trkpt>
      <trkpt lat="48.32662" lon="6.8348">
        <ele>345.71</ele>
        <time>2018-03-25T11:52:47Z</time>
      </trkpt>
      <trkpt lat="48.32659" lon="6.8347">
        <ele>346.85</ele>
        <time>2018-03-25T11:52:53Z</time>
      </trkpt>
      <trkpt lat="48.32653" lon="6.83445">
        <ele>346.97</ele>
        <time>2018-03-25T11:53:09Z</time>
      </trkpt>
      <trkpt lat="48.32648" lon="6.8342">
        <ele>348</ele>
        <time>2018-03-25T11:53:27Z</time>
      </trkpt>
      <trkpt lat="48.32648" lon="6.83402">
        <ele>347.39</ele>
        <time>2018-03-25T11:53:49Z</time>
      </trkpt>
      <trkpt lat="48.32641" lon="6.83379">
        <ele>349.09</ele>
        <time>2018-03-25T11:54:06Z</time>
      </trkpt>
      <trkpt lat="48.32637" lon="6.83366">
        <ele>350.2</ele>
        <time>2018-03-25T11:54:14Z</time>
      </trkpt>
      <trkpt lat="48.32634" lon="6.8335">
        <ele>351.21</ele>
        <time>2018-03-25T11:54:25Z</time>
      </trkpt>
      <trkpt lat="48.32634" lon="6.83325">
        <ele>352.38</ele>
        <time>2018-03-25T11:54:41Z</time>
      </trkpt>
      <trkpt lat="48.32643" lon="6.83304">
        <ele>354.39</ele>
        <time>2018-03-25T11:54:59Z</time>
      </trkpt>
      <trkpt lat="48.32648" lon="6.83286">
        <ele>356.96</ele>
        <time>2018-03-25T11:55:15Z</time>
      </trkpt>
      <trkpt lat="48.32652" lon="6.83283">
        <ele>357.19</ele>
        <time>2018-03-25T11:55:18Z</time>
      </trkpt>
      <trkpt lat="48.32658" lon="6.83277">
        <ele>357.82</ele>
        <time>2018-03-25T11:55:24Z</time>
      </trkpt>
      <trkpt lat="48.32665" lon="6.83271">
        <ele>357.29</ele>
        <time>2018-03-25T11:55:30Z</time>
      </trkpt>
      <trkpt lat="48.32673" lon="6.83254">
        <ele>357.08</ele>
        <time>2018-03-25T11:55:45Z</time>
      </trkpt>
      <trkpt lat="48.32674" lon="6.83252">
        <ele>357.25</ele>
        <time>2018-03-25T11:55:47Z</time>
      </trkpt>
      <trkpt lat="48.32678" lon="6.83246">
        <ele>357.03</ele>
        <time>2018-03-25T11:55:54Z</time>
      </trkpt>
      <trkpt lat="48.32683" lon="6.8324">
        <ele>357.12</ele>
        <time>2018-03-25T11:56:00Z</time>
      </trkpt>
      <trkpt lat="48.32688" lon="6.83233">
        <ele>356.19</ele>
        <time>2018-03-25T11:56:07Z</time>
      </trkpt>
      <trkpt lat="48.3269" lon="6.83231">
        <ele>356.32</ele>
        <time>2018-03-25T11:56:09Z</time>
      </trkpt>
      <trkpt lat="48.32708" lon="6.83213">
        <ele>356.55</ele>
        <time>2018-03-25T11:56:30Z</time>
      </trkpt>
      <trkpt lat="48.32723" lon="6.83198">
        <ele>356.66</ele>
        <time>2018-03-25T11:56:47Z</time>
      </trkpt>
      <trkpt lat="48.32739" lon="6.83177">
        <ele>356.06</ele>
        <time>2018-03-25T11:57:06Z</time>
      </trkpt>
      <trkpt lat="48.32754" lon="6.83154">
        <ele>355.61</ele>
        <time>2018-03-25T11:57:26Z</time>
      </trkpt>
      <trkpt lat="48.32764" lon="6.83126">
        <ele>353.98</ele>
        <time>2018-03-25T11:57:46Z</time>
      </trkpt>
      <trkpt lat="48.3277" lon="6.83093">
        <ele>354.11</ele>
        <time>2018-03-25T11:58:07Z</time>
      </trkpt>
      <trkpt lat="48.3277" lon="6.83066">
        <ele>354.07</ele>
        <time>2018-03-25T11:58:25Z</time>
      </trkpt>
      <trkpt lat="48.32769" lon="6.83041">
        <ele>354.38</ele>
        <time>2018-03-25T11:58:44Z</time>
      </trkpt>
      <trkpt lat="48.32778" lon="6.83014">
        <ele>352.99</ele>
        <time>2018-03-25T11:59:01Z</time>
      </trkpt>
      <trkpt lat="48.32797" lon="6.82999">
        <ele>352.79</ele>
        <time>2018-03-25T11:59:22Z</time>
      </trkpt>
      <trkpt lat="48.32816" lon="6.82985">
        <ele>352.81</ele>
        <time>2018-03-25T11:59:39Z</time>
      </trkpt>
      <trkpt lat="48.32821" lon="6.82984">
        <ele>352.77</ele>
        <time>2018-03-25T11:59:45Z</time>
      </trkpt>
      <trkpt lat="48.32824" lon="6.82984">
        <ele>353.22</ele>
        <time>2018-03-25T11:59:48Z</time>
      </trkpt>
      <trkpt lat="48.32844" lon="6.82979">
        <ele>354.39</ele>
        <time>2018-03-25T12:00:02Z</time>
      </trkpt>
      <trkpt lat="48.32857" lon="6.82976">
        <ele>355.72</ele>
        <time>2018-03-25T12:00:15Z</time>
      </trkpt>
      <trkpt lat="48.32873" lon="6.8297">
        <ele>357.23</ele>
        <time>2018-03-25T12:00:31Z</time>
      </trkpt>
      <trkpt lat="48.32887" lon="6.82962">
        <ele>358.27</ele>
        <time>2018-03-25T12:00:45Z</time>
      </trkpt>
      <trkpt lat="48.32899" lon="6.82952">
        <ele>360.32</ele>
        <time>2018-03-25T12:01:00Z</time>
      </trkpt>
      <trkpt lat="48.32914" lon="6.82939">
        <ele>361.55</ele>
        <time>2018-03-25T12:01:17Z</time>
      </trkpt>
      <trkpt lat="48.32929" lon="6.82928">
        <ele>363</ele>
        <time>2018-03-25T12:01:32Z</time>
      </trkpt>
      <trkpt lat="48.3294" lon="6.82917">
        <ele>363.27</ele>
        <time>2018-03-25T12:01:44Z</time>
      </trkpt>
      <trkpt lat="48.32952" lon="6.82901">
        <ele>364.07</ele>
        <time>2018-03-25T12:02:00Z</time>
      </trkpt>
      <trkpt lat="48.32958" lon="6.82871">
        <ele>365.43</ele>
        <time>2018-03-25T12:02:21Z</time>
      </trkpt>
      <trkpt lat="48.3296" lon="6.82837">
        <ele>365.67</ele>
        <time>2018-03-25T12:02:41Z</time>
      </trkpt>
      <trkpt lat="48.32971" lon="6.82808">
        <ele>366.3</ele>
        <time>2018-03-25T12:03:01Z</time>
      </trkpt>
      <trkpt lat="48.32989" lon="6.82793">
        <ele>366.6</ele>
        <time>2018-03-25T12:03:19Z</time>
      </trkpt>
      <trkpt lat="48.33007" lon="6.82778">
        <ele>366.73</ele>
        <time>2018-03-25T12:03:37Z</time>
      </trkpt>
      <trkpt lat="48.33022" lon="6.82762">
        <ele>366.37</ele>
        <time>2018-03-25T12:03:54Z</time>
      </trkpt>
      <trkpt lat="48.33025" lon="6.82759">
        <ele>366.96</ele>
        <time>2018-03-25T12:03:57Z</time>
      </trkpt>
      <trkpt lat="48.33038" lon="6.82742">
        <ele>366.79</ele>
        <time>2018-03-25T12:04:18Z</time>
      </trkpt>
      <trkpt lat="48.3304" lon="6.82741">
        <ele>367.54</ele>
        <time>2018-03-25T12:04:40Z</time>
      </trkpt>
      <trkpt lat="48.33037" lon="6.82741">
        <ele>366.66</ele>
        <time>2018-03-25T12:04:53Z</time>
      </trkpt>
      <trkpt lat="48.33036" lon="6.82742">
        <ele>366.55</ele>
        <time>2018-03-25T12:05:13Z</time>
      </trkpt>
      <trkpt lat="48.33036" lon="6.82742">
        <ele>367.2</ele>
        <time>2018-03-25T12:05:42Z</time>
      </trkpt>
      <trkpt lat="48.33035" lon="6.82741">
        <ele>366.85</ele>
        <time>2018-03-25T12:06:08Z</time>
      </trkpt>
      <trkpt lat="48.33035" lon="6.8274">
        <ele>366.86</ele>
        <time>2018-03-25T12:06:39Z</time>
      </trkpt>
      <trkpt lat="48.33035" lon="6.82742">
        <ele>367.03</ele>
        <time>2018-03-25T12:07:11Z</time>
      </trkpt>
      <trkpt lat="48.33035" lon="6.8274">
        <ele>367.12</ele>
        <time>2018-03-25T12:07:32Z</time>
      </trkpt>
      <trkpt lat="48.33035" lon="6.82741">
        <ele>367.48</ele>
        <time>2018-03-25T12:08:01Z</time>
      </trkpt>
      <trkpt lat="48.33033" lon="6.82727">
        <ele>367.42</ele>
        <time>2018-03-25T12:08:18Z</time>
      </trkpt>
      <trkpt lat="48.33033" lon="6.82725">
        <ele>367.05</ele>
        <time>2018-03-25T12:08:19Z</time>
      </trkpt>
      <trkpt lat="48.33024" lon="6.827">
        <ele>368.19</ele>
        <time>2018-03-25T12:08:38Z</time>
      </trkpt>
      <trkpt lat="48.33024" lon="6.82684">
        <ele>368.19</ele>
        <time>2018-03-25T12:08:54Z</time>
      </trkpt>
      <trkpt lat="48.33037" lon="6.8269">
        <ele>367.53</ele>
        <time>2018-03-25T12:09:10Z</time>
      </trkpt>
      <trkpt lat="48.33038" lon="6.8269">
        <ele>367.64</ele>
        <time>2018-03-25T12:09:11Z</time>
      </trkpt>
      <trkpt lat="48.3304" lon="6.82691">
        <ele>367.93</ele>
        <time>2018-03-25T12:09:13Z</time>
      </trkpt>
      <trkpt lat="48.33059" lon="6.82702">
        <ele>367.17</ele>
        <time>2018-03-25T12:09:32Z</time>
      </trkpt>
      <trkpt lat="48.33076" lon="6.82712">
        <ele>367.29</ele>
        <time>2018-03-25T12:09:49Z</time>
      </trkpt>
      <trkpt lat="48.33094" lon="6.82723">
        <ele>367.15</ele>
        <time>2018-03-25T12:10:06Z</time>
      </trkpt>
      <trkpt lat="48.33104" lon="6.82729">
        <ele>367.74</ele>
        <time>2018-03-25T12:10:15Z</time>
      </trkpt>
      <trkpt lat="48.33123" lon="6.82743">
        <ele>367.38</ele>
        <time>2018-03-25T12:10:35Z</time>
      </trkpt>
      <trkpt lat="48.3314" lon="6.82759">
        <ele>367.15</ele>
        <time>2018-03-25T12:10:52Z</time>
      </trkpt>
      <trkpt lat="48.33154" lon="6.82775">
        <ele>367.3</ele>
        <time>2018-03-25T12:11:08Z</time>
      </trkpt>
      <trkpt lat="48.33165" lon="6.82787">
        <ele>367.64</ele>
        <time>2018-03-25T12:11:20Z</time>
      </trkpt>
      <trkpt lat="48.3317" lon="6.82791">
        <ele>367.4</ele>
        <time>2018-03-25T12:11:25Z</time>
      </trkpt>
      <trkpt lat="48.33186" lon="6.8281">
        <ele>366.92</ele>
        <time>2018-03-25T12:11:44Z</time>
      </trkpt>
      <trkpt lat="48.33196" lon="6.82821">
        <ele>366.63</ele>
        <time>2018-03-25T12:11:59Z</time>
      </trkpt>
      <trkpt lat="48.33198" lon="6.82824">
        <ele>367.1</ele>
        <time>2018-03-25T12:12:02Z</time>
      </trkpt>
      <trkpt lat="48.33212" lon="6.82844">
        <ele>366.3</ele>
        <time>2018-03-25T12:12:19Z</time>
      </trkpt>
      <trkpt lat="48.3323" lon="6.82866">
        <ele>366.03</ele>
        <time>2018-03-25T12:12:39Z</time>
      </trkpt>
      <trkpt lat="48.33245" lon="6.82884">
        <ele>366.68</ele>
        <time>2018-03-25T12:12:56Z</time>
      </trkpt>
      <trkpt lat="48.33248" lon="6.82887">
        <ele>367.23</ele>
        <time>2018-03-25T12:12:59Z</time>
      </trkpt>
      <trkpt lat="48.33265" lon="6.8291">
        <ele>366.7</ele>
        <time>2018-03-25T12:13:18Z</time>
      </trkpt>
      <trkpt lat="48.33278" lon="6.82925">
        <ele>366.64</ele>
        <time>2018-03-25T12:13:33Z</time>
      </trkpt>
      <trkpt lat="48.33291" lon="6.82943">
        <ele>366.5</ele>
        <time>2018-03-25T12:13:49Z</time>
      </trkpt>
      <trkpt lat="48.33304" lon="6.82959">
        <ele>366.61</ele>
        <time>2018-03-25T12:14:05Z</time>
      </trkpt>
      <trkpt lat="48.33308" lon="6.82967">
        <ele>366.12</ele>
        <time>2018-03-25T12:14:11Z</time>
      </trkpt>
      <trkpt lat="48.33313" lon="6.82972">
        <ele>366.34</ele>
        <time>2018-03-25T12:14:16Z</time>
      </trkpt>
      <trkpt lat="48.33328" lon="6.82996">
        <ele>365.89</ele>
        <time>2018-03-25T12:14:36Z</time>
      </trkpt>
      <trkpt lat="48.33339" lon="6.83014">
        <ele>366.08</ele>
        <time>2018-03-25T12:14:51Z</time>
      </trkpt>
      <trkpt lat="48.33352" lon="6.83035">
        <ele>366.07</ele>
        <time>2018-03-25T12:15:10Z</time>
      </trkpt>
      <trkpt lat="48.33362" lon="6.83054">
        <ele>365.65</ele>
        <time>2018-03-25T12:15:29Z</time>
      </trkpt>
      <trkpt lat="48.33367" lon="6.83066">
        <ele>364.99</ele>
        <time>2018-03-25T12:15:47Z</time>
      </trkpt>
      <trkpt lat="48.33367" lon="6.83068">
        <ele>365.25</ele>
        <time>2018-03-25T12:16:04Z</time>
      </trkpt>
      <trkpt lat="48.3337" lon="6.83071">
        <ele>365.12</ele>
        <time>2018-03-25T12:16:28Z</time>
      </trkpt>
      <trkpt lat="48.33374" lon="6.8308">
        <ele>364.63</ele>
        <time>2018-03-25T12:16:44Z</time>
      </trkpt>
      <trkpt lat="48.33384" lon="6.83089">
        <ele>364.41</ele>
        <time>2018-03-25T12:17:01Z</time>
      </trkpt>
      <trkpt lat="48.33385" lon="6.83091">
        <ele>364.16</ele>
        <time>2018-03-25T12:17:03Z</time>
      </trkpt>
      <trkpt lat="48.33394" lon="6.83097">
        <ele>362.87</ele>
        <time>2018-03-25T12:17:15Z</time>
      </trkpt>
      <trkpt lat="48.33411" lon="6.83096">
        <ele>362.66</ele>
        <time>2018-03-25T12:17:32Z</time>
      </trkpt>
      <trkpt lat="48.33427" lon="6.83093">
        <ele>362.24</ele>
        <time>2018-03-25T12:17:48Z</time>
      </trkpt>
      <trkpt lat="48.33442" lon="6.8309">
        <ele>361.38</ele>
        <time>2018-03-25T12:18:04Z</time>
      </trkpt>
      <trkpt lat="48.33461" lon="6.83092">
        <ele>360.52</ele>
        <time>2018-03-25T12:18:22Z</time>
      </trkpt>
      <trkpt lat="48.33474" lon="6.8309">
        <ele>359.92</ele>
        <time>2018-03-25T12:18:35Z</time>
      </trkpt>
      <trkpt lat="48.33486" lon="6.83086">
        <ele>358.97</ele>
        <time>2018-03-25T12:18:50Z</time>
      </trkpt>
      <trkpt lat="48.33486" lon="6.83086">
        <ele>359.28</ele>
        <time>2018-03-25T12:18:53Z</time>
      </trkpt>
      <trkpt lat="48.33488" lon="6.83084">
        <ele>359.22</ele>
        <time>2018-03-25T12:18:55Z</time>
      </trkpt>
      <trkpt lat="48.33506" lon="6.83069">
        <ele>358.6</ele>
        <time>2018-03-25T12:19:12Z</time>
      </trkpt>
      <trkpt lat="48.3352" lon="6.83059">
        <ele>358.16</ele>
        <time>2018-03-25T12:19:29Z</time>
      </trkpt>
      <trkpt lat="48.33523" lon="6.83058">
        <ele>357.78</ele>
        <time>2018-03-25T12:19:42Z</time>
      </trkpt>
      <trkpt lat="48.33526" lon="6.83056">
        <ele>357.29</ele>
        <time>2018-03-25T12:19:45Z</time>
      </trkpt>
      <trkpt lat="48.33535" lon="6.83051">
        <ele>357.74</ele>
        <time>2018-03-25T12:20:01Z</time>
      </trkpt>
      <trkpt lat="48.33538" lon="6.83046">
        <ele>357.96</ele>
        <time>2018-03-25T12:20:12Z</time>
      </trkpt>
      <trkpt lat="48.33542" lon="6.83042">
        <ele>357.98</ele>
        <time>2018-03-25T12:20:17Z</time>
      </trkpt>
      <trkpt lat="48.33558" lon="6.83032">
        <ele>357.32</ele>
        <time>2018-03-25T12:20:32Z</time>
      </trkpt>
      <trkpt lat="48.33576" lon="6.83017">
        <ele>357.32</ele>
        <time>2018-03-25T12:20:50Z</time>
      </trkpt>
      <trkpt lat="48.33594" lon="6.83004">
        <ele>357</ele>
        <time>2018-03-25T12:21:07Z</time>
      </trkpt>
      <trkpt lat="48.33611" lon="6.82986">
        <ele>356.12</ele>
        <time>2018-03-25T12:21:24Z</time>
      </trkpt>
      <trkpt lat="48.33616" lon="6.82979">
        <ele>355.92</ele>
        <time>2018-03-25T12:21:30Z</time>
      </trkpt>
      <trkpt lat="48.33627" lon="6.82959">
        <ele>354.4</ele>
        <time>2018-03-25T12:21:45Z</time>
      </trkpt>
      <trkpt lat="48.33625" lon="6.82953">
        <ele>354.19</ele>
        <time>2018-03-25T12:21:49Z</time>
      </trkpt>
      <trkpt lat="48.3361" lon="6.82918">
        <ele>353.18</ele>
        <time>2018-03-25T12:22:10Z</time>
      </trkpt>
      <trkpt lat="48.33602" lon="6.82904">
        <ele>353.44</ele>
        <time>2018-03-25T12:22:21Z</time>
      </trkpt>
      <trkpt lat="48.33599" lon="6.82898">
        <ele>353.86</ele>
        <time>2018-03-25T12:22:25Z</time>
      </trkpt>
      <trkpt lat="48.33583" lon="6.82869">
        <ele>352.03</ele>
        <time>2018-03-25T12:22:44Z</time>
      </trkpt>
      <trkpt lat="48.3357" lon="6.82843">
        <ele>351.69</ele>
        <time>2018-03-25T12:23:02Z</time>
      </trkpt>
      <trkpt lat="48.33561" lon="6.82814">
        <ele>350.24</ele>
        <time>2018-03-25T12:23:20Z</time>
      </trkpt>
      <trkpt lat="48.33559" lon="6.82809">
        <ele>350.69</ele>
        <time>2018-03-25T12:23:23Z</time>
      </trkpt>
      <trkpt lat="48.33557" lon="6.82804">
        <ele>350.33</ele>
        <time>2018-03-25T12:23:27Z</time>
      </trkpt>
      <trkpt lat="48.3355" lon="6.82778">
        <ele>349.1</ele>
        <time>2018-03-25T12:23:44Z</time>
      </trkpt>
      <trkpt lat="48.33546" lon="6.8275">
        <ele>347.45</ele>
        <time>2018-03-25T12:24:02Z</time>
      </trkpt>
      <trkpt lat="48.33546" lon="6.82747">
        <ele>348.18</ele>
        <time>2018-03-25T12:24:04Z</time>
      </trkpt>
      <trkpt lat="48.33558" lon="6.82727">
        <ele>345.15</ele>
        <time>2018-03-25T12:24:23Z</time>
      </trkpt>
      <trkpt lat="48.33559" lon="6.82726">
        <ele>345.52</ele>
        <time>2018-03-25T12:24:24Z</time>
      </trkpt>
      <trkpt lat="48.33564" lon="6.82719">
        <ele>344.68</ele>
        <time>2018-03-25T12:24:32Z</time>
      </trkpt>
      <trkpt lat="48.33577" lon="6.82706">
        <ele>342.64</ele>
        <time>2018-03-25T12:24:48Z</time>
      </trkpt>
      <trkpt lat="48.33595" lon="6.82688">
        <ele>340.77</ele>
        <time>2018-03-25T12:25:05Z</time>
      </trkpt>
      <trkpt lat="48.33597" lon="6.82684">
        <ele>340.4</ele>
        <time>2018-03-25T12:25:22Z</time>
      </trkpt>
      <trkpt lat="48.33597" lon="6.82682">
        <ele>340.34</ele>
        <time>2018-03-25T12:25:33Z</time>
      </trkpt>
      <trkpt lat="48.336" lon="6.8268">
        <ele>340.1</ele>
        <time>2018-03-25T12:25:37Z</time>
      </trkpt>
      <trkpt lat="48.33607" lon="6.8267">
        <ele>340.01</ele>
        <time>2018-03-25T12:25:45Z</time>
      </trkpt>
      <trkpt lat="48.33616" lon="6.82662">
        <ele>339.96</ele>
        <time>2018-03-25T12:25:59Z</time>
      </trkpt>
      <trkpt lat="48.33619" lon="6.82657">
        <ele>340.14</ele>
        <time>2018-03-25T12:26:03Z</time>
      </trkpt>
      <trkpt lat="48.33629" lon="6.82641">
        <ele>340.05</ele>
        <time>2018-03-25T12:26:17Z</time>
      </trkpt>
      <trkpt lat="48.33633" lon="6.82635">
        <ele>341.18</ele>
        <time>2018-03-25T12:26:23Z</time>
      </trkpt>
      <trkpt lat="48.33645" lon="6.82612">
        <ele>341.03</ele>
        <time>2018-03-25T12:26:41Z</time>
      </trkpt>
      <trkpt lat="48.33653" lon="6.82585">
        <ele>341.2</ele>
        <time>2018-03-25T12:27:00Z</time>
      </trkpt>
      <trkpt lat="48.3366" lon="6.82548">
        <ele>340.8</ele>
        <time>2018-03-25T12:27:22Z</time>
      </trkpt>
      <trkpt lat="48.33662" lon="6.82522">
        <ele>340.5</ele>
        <time>2018-03-25T12:27:39Z</time>
      </trkpt>
      <trkpt lat="48.33664" lon="6.82479">
        <ele>339.76</ele>
        <time>2018-03-25T12:28:04Z</time>
      </trkpt>
      <trkpt lat="48.33664" lon="6.82443">
        <ele>339.86</ele>
        <time>2018-03-25T12:28:25Z</time>
      </trkpt>
      <trkpt lat="48.33665" lon="6.8242">
        <ele>340.52</ele>
        <time>2018-03-25T12:28:39Z</time>
      </trkpt>
      <trkpt lat="48.33674" lon="6.8241">
        <ele>341.26</ele>
        <time>2018-03-25T12:28:54Z</time>
      </trkpt>
      <trkpt lat="48.33683" lon="6.82411">
        <ele>341.04</ele>
        <time>2018-03-25T12:29:07Z</time>
      </trkpt>
      <trkpt lat="48.33694" lon="6.82413">
        <ele>340.28</ele>
        <time>2018-03-25T12:29:23Z</time>
      </trkpt>
      <trkpt lat="48.33697" lon="6.82413">
        <ele>341.07</ele>
        <time>2018-03-25T12:29:42Z</time>
      </trkpt>
      <trkpt lat="48.33699" lon="6.8241">
        <ele>340.89</ele>
        <time>2018-03-25T12:30:03Z</time>
      </trkpt>
      <trkpt lat="48.33699" lon="6.82413">
        <ele>340.96</ele>
        <time>2018-03-25T12:30:18Z</time>
      </trkpt>
      <trkpt lat="48.33696" lon="6.82409">
        <ele>341.01</ele>
        <time>2018-03-25T12:30:32Z</time>
      </trkpt>
      <trkpt lat="48.33699" lon="6.8241">
        <ele>340.26</ele>
        <time>2018-03-25T12:30:52Z</time>
      </trkpt>
      <trkpt lat="48.33701" lon="6.82411">
        <ele>340.73</ele>
        <time>2018-03-25T12:31:10Z</time>
      </trkpt>
      <trkpt lat="48.33704" lon="6.82412">
        <ele>341.57</ele>
        <time>2018-03-25T12:31:35Z</time>
      </trkpt>
      <trkpt lat="48.33705" lon="6.82411">
        <ele>340.75</ele>
        <time>2018-03-25T12:32:03Z</time>
      </trkpt>
      <trkpt lat="48.33705" lon="6.82397">
        <ele>340.41</ele>
        <time>2018-03-25T12:32:19Z</time>
      </trkpt>
      <trkpt lat="48.33706" lon="6.82394">
        <ele>340.58</ele>
        <time>2018-03-25T12:32:38Z</time>
      </trkpt>
      <trkpt lat="48.33701" lon="6.82395">
        <ele>341.03</ele>
        <time>2018-03-25T12:32:54Z</time>
      </trkpt>
      <trkpt lat="48.33702" lon="6.82393">
        <ele>340.58</ele>
        <time>2018-03-25T12:33:13Z</time>
      </trkpt>
      <trkpt lat="48.33703" lon="6.82394">
        <ele>340.72</ele>
        <time>2018-03-25T12:33:34Z</time>
      </trkpt>
      <trkpt lat="48.33704" lon="6.82383">
        <ele>340.48</ele>
        <time>2018-03-25T12:33:50Z</time>
      </trkpt>
      <trkpt lat="48.33704" lon="6.82365">
        <ele>340.66</ele>
        <time>2018-03-25T12:34:06Z</time>
      </trkpt>
      <trkpt lat="48.33705" lon="6.8234">
        <ele>340.26</ele>
        <time>2018-03-25T12:34:26Z</time>
      </trkpt>
      <trkpt lat="48.33704" lon="6.82322">
        <ele>340.91</ele>
        <time>2018-03-25T12:34:41Z</time>
      </trkpt>
      <trkpt lat="48.33703" lon="6.82303">
        <ele>340.39</ele>
        <time>2018-03-25T12:34:56Z</time>
      </trkpt>
      <trkpt lat="48.33703" lon="6.82301">
        <ele>340.86</ele>
        <time>2018-03-25T12:34:58Z</time>
      </trkpt>
      <trkpt lat="48.33704" lon="6.82276">
        <ele>340.78</ele>
        <time>2018-03-25T12:35:14Z</time>
      </trkpt>
      <trkpt lat="48.33703" lon="6.82258">
        <ele>341.95</ele>
        <time>2018-03-25T12:35:31Z</time>
      </trkpt>
      <trkpt lat="48.33701" lon="6.82247">
        <ele>342.66</ele>
        <time>2018-03-25T12:35:39Z</time>
      </trkpt>
      <trkpt lat="48.33695" lon="6.82224">
        <ele>343.3</ele>
        <time>2018-03-25T12:35:55Z</time>
      </trkpt>
      <trkpt lat="48.33686" lon="6.82205">
        <ele>345.2</ele>
        <time>2018-03-25T12:36:11Z</time>
      </trkpt>
      <trkpt lat="48.33677" lon="6.82184">
        <ele>347</ele>
        <time>2018-03-25T12:36:27Z</time>
      </trkpt>
      <trkpt lat="48.33665" lon="6.82159">
        <ele>348.51</ele>
        <time>2018-03-25T12:36:47Z</time>
      </trkpt>
      <trkpt lat="48.33657" lon="6.82144">
        <ele>348.91</ele>
        <time>2018-03-25T12:37:00Z</time>
      </trkpt>
      <trkpt lat="48.33652" lon="6.82141">
        <ele>349.56</ele>
        <time>2018-03-25T12:37:05Z</time>
      </trkpt>
      <trkpt lat="48.33646" lon="6.82117">
        <ele>350.5</ele>
        <time>2018-03-25T12:37:20Z</time>
      </trkpt>
      <trkpt lat="48.33644" lon="6.82097">
        <ele>350.92</ele>
        <time>2018-03-25T12:37:31Z</time>
      </trkpt>
      <trkpt lat="48.33642" lon="6.82077">
        <ele>351.17</ele>
        <time>2018-03-25T12:37:46Z</time>
      </trkpt>
      <trkpt lat="48.33638" lon="6.82056">
        <ele>352.11</ele>
        <time>2018-03-25T12:38:03Z</time>
      </trkpt>
      <trkpt lat="48.3363" lon="6.82029">
        <ele>352.17</ele>
        <time>2018-03-25T12:38:20Z</time>
      </trkpt>
      <trkpt lat="48.33624" lon="6.82">
        <ele>352.47</ele>
        <time>2018-03-25T12:38:40Z</time>
      </trkpt>
      <trkpt lat="48.33616" lon="6.81973">
        <ele>352.94</ele>
        <time>2018-03-25T12:38:58Z</time>
      </trkpt>
      <trkpt lat="48.33613" lon="6.81949">
        <ele>353.74</ele>
        <time>2018-03-25T12:39:14Z</time>
      </trkpt>
      <trkpt lat="48.33611" lon="6.81921">
        <ele>353.83</ele>
        <time>2018-03-25T12:39:34Z</time>
      </trkpt>
      <trkpt lat="48.33605" lon="6.81897">
        <ele>354.22</ele>
        <time>2018-03-25T12:39:52Z</time>
      </trkpt>
      <trkpt lat="48.336" lon="6.81873">
        <ele>355.26</ele>
        <time>2018-03-25T12:40:07Z</time>
      </trkpt>
      <trkpt lat="48.33594" lon="6.81863">
        <ele>355.47</ele>
        <time>2018-03-25T12:40:25Z</time>
      </trkpt>
      <trkpt lat="48.33589" lon="6.81859">
        <ele>354.63</ele>
        <time>2018-03-25T12:40:50Z</time>
      </trkpt>
      <trkpt lat="48.33585" lon="6.81847">
        <ele>355.53</ele>
        <time>2018-03-25T12:41:07Z</time>
      </trkpt>
      <trkpt lat="48.33571" lon="6.81832">
        <ele>355.66</ele>
        <time>2018-03-25T12:41:28Z</time>
      </trkpt>
      <trkpt lat="48.33555" lon="6.81825">
        <ele>356.05</ele>
        <time>2018-03-25T12:41:48Z</time>
      </trkpt>
      <trkpt lat="48.33539" lon="6.81811">
        <ele>356.81</ele>
        <time>2018-03-25T12:42:06Z</time>
      </trkpt>
      <trkpt lat="48.33514" lon="6.81794">
        <ele>356.31</ele>
        <time>2018-03-25T12:42:30Z</time>
      </trkpt>
      <trkpt lat="48.33506" lon="6.81785">
        <ele>356.52</ele>
        <time>2018-03-25T12:42:39Z</time>
      </trkpt>
      <trkpt lat="48.33494" lon="6.81771">
        <ele>356.94</ele>
        <time>2018-03-25T12:42:55Z</time>
      </trkpt>
      <trkpt lat="48.3349" lon="6.8177">
        <ele>357.34</ele>
        <time>2018-03-25T12:43:00Z</time>
      </trkpt>
      <trkpt lat="48.33476" lon="6.81742">
        <ele>357.07</ele>
        <time>2018-03-25T12:43:16Z</time>
      </trkpt>
      <trkpt lat="48.33461" lon="6.81717">
        <ele>358.32</ele>
        <time>2018-03-25T12:43:35Z</time>
      </trkpt>
      <trkpt lat="48.3345" lon="6.81698">
        <ele>358.88</ele>
        <time>2018-03-25T12:43:50Z</time>
      </trkpt>
      <trkpt lat="48.3345" lon="6.81697">
        <ele>358.99</ele>
        <time>2018-03-25T12:43:51Z</time>
      </trkpt>
      <trkpt lat="48.33439" lon="6.81677">
        <ele>359.32</ele>
        <time>2018-03-25T12:44:06Z</time>
      </trkpt>
      <trkpt lat="48.33427" lon="6.81657">
        <ele>359.54</ele>
        <time>2018-03-25T12:44:21Z</time>
      </trkpt>
      <trkpt lat="48.33426" lon="6.81656">
        <ele>359.68</ele>
        <time>2018-03-25T12:44:22Z</time>
      </trkpt>
      <trkpt lat="48.33422" lon="6.81649">
        <ele>360.07</ele>
        <time>2018-03-25T12:44:29Z</time>
      </trkpt>
      <trkpt lat="48.3342" lon="6.81646">
        <ele>359.99</ele>
        <time>2018-03-25T12:44:31Z</time>
      </trkpt>
      <trkpt lat="48.33404" lon="6.81618">
        <ele>361</ele>
        <time>2018-03-25T12:44:51Z</time>
      </trkpt>
      <trkpt lat="48.33388" lon="6.81599">
        <ele>361.17</ele>
        <time>2018-03-25T12:45:10Z</time>
      </trkpt>
      <trkpt lat="48.33376" lon="6.81586">
        <ele>362.58</ele>
        <time>2018-03-25T12:45:23Z</time>
      </trkpt>
      <trkpt lat="48.33365" lon="6.81572">
        <ele>362.46</ele>
        <time>2018-03-25T12:45:36Z</time>
      </trkpt>
      <trkpt lat="48.33357" lon="6.81559">
        <ele>362.46</ele>
        <time>2018-03-25T12:45:46Z</time>
      </trkpt>
      <trkpt lat="48.33341" lon="6.81541">
        <ele>362.83</ele>
        <time>2018-03-25T12:46:04Z</time>
      </trkpt>
      <trkpt lat="48.33333" lon="6.81532">
        <ele>363.65</ele>
        <time>2018-03-25T12:46:13Z</time>
      </trkpt>
      <trkpt lat="48.33332" lon="6.81529">
        <ele>362.96</ele>
        <time>2018-03-25T12:46:15Z</time>
      </trkpt>
      <trkpt lat="48.3332" lon="6.8151">
        <ele>363.08</ele>
        <time>2018-03-25T12:46:31Z</time>
      </trkpt>
      <trkpt lat="48.33307" lon="6.81492">
        <ele>364.3</ele>
        <time>2018-03-25T12:46:45Z</time>
      </trkpt>
      <trkpt lat="48.333" lon="6.81481">
        <ele>364.12</ele>
        <time>2018-03-25T12:46:55Z</time>
      </trkpt>
      <trkpt lat="48.33296" lon="6.81475">
        <ele>364.15</ele>
        <time>2018-03-25T12:47:00Z</time>
      </trkpt>
      <trkpt lat="48.33286" lon="6.81465">
        <ele>364.81</ele>
        <time>2018-03-25T12:47:14Z</time>
      </trkpt>
      <trkpt lat="48.33273" lon="6.81465">
        <ele>365.06</ele>
        <time>2018-03-25T12:47:29Z</time>
      </trkpt>
      <trkpt lat="48.3326" lon="6.81469">
        <ele>364.96</ele>
        <time>2018-03-25T12:47:42Z</time>
      </trkpt>
      <trkpt lat="48.33247" lon="6.81471">
        <ele>365.2</ele>
        <time>2018-03-25T12:47:56Z</time>
      </trkpt>
      <trkpt lat="48.33234" lon="6.81472">
        <ele>363.85</ele>
        <time>2018-03-25T12:48:13Z</time>
      </trkpt>
      <trkpt lat="48.33229" lon="6.81472">
        <ele>364.57</ele>
        <time>2018-03-25T12:48:21Z</time>
      </trkpt>
      <trkpt lat="48.33213" lon="6.81476">
        <ele>364.34</ele>
        <time>2018-03-25T12:48:38Z</time>
      </trkpt>
      <trkpt lat="48.33195" lon="6.81478">
        <ele>362.93</ele>
        <time>2018-03-25T12:48:58Z</time>
      </trkpt>
      <trkpt lat="48.33177" lon="6.81489">
        <ele>363.51</ele>
        <time>2018-03-25T12:49:13Z</time>
      </trkpt>
      <trkpt lat="48.33175" lon="6.81494">
        <ele>362.52</ele>
        <time>2018-03-25T12:49:19Z</time>
      </trkpt>
      <trkpt lat="48.33173" lon="6.81508">
        <ele>362.54</ele>
        <time>2018-03-25T12:49:40Z</time>
      </trkpt>
      <trkpt lat="48.33162" lon="6.81518">
        <ele>363.75</ele>
        <time>2018-03-25T12:50:00Z</time>
      </trkpt>
      <trkpt lat="48.33158" lon="6.81521">
        <ele>364.57</ele>
        <time>2018-03-25T12:50:06Z</time>
      </trkpt>
      <trkpt lat="48.33153" lon="6.81518">
        <ele>364.06</ele>
        <time>2018-03-25T12:50:19Z</time>
      </trkpt>
      <trkpt lat="48.33153" lon="6.81517">
        <ele>363.36</ele>
        <time>2018-03-25T12:50:21Z</time>
      </trkpt>
      <trkpt lat="48.33153" lon="6.81503">
        <ele>363.57</ele>
        <time>2018-03-25T12:50:36Z</time>
      </trkpt>
      <trkpt lat="48.33161" lon="6.8149">
        <ele>361.9</ele>
        <time>2018-03-25T12:50:50Z</time>
      </trkpt>
      <trkpt lat="48.33162" lon="6.8148">
        <ele>362.19</ele>
        <time>2018-03-25T12:50:55Z</time>
      </trkpt>
      <trkpt lat="48.33167" lon="6.81457">
        <ele>363.24</ele>
        <time>2018-03-25T12:51:10Z</time>
      </trkpt>
      <trkpt lat="48.3317" lon="6.81437">
        <ele>363.64</ele>
        <time>2018-03-25T12:51:23Z</time>
      </trkpt>
      <trkpt lat="48.3317" lon="6.81422">
        <ele>363.85</ele>
        <time>2018-03-25T12:51:31Z</time>
      </trkpt>
      <trkpt lat="48.33168" lon="6.81402">
        <ele>364.73</ele>
        <time>2018-03-25T12:51:44Z</time>
      </trkpt>
      <trkpt lat="48.33168" lon="6.81399">
        <ele>364.52</ele>
        <time>2018-03-25T12:51:46Z</time>
      </trkpt>
      <trkpt lat="48.33168" lon="6.81375">
        <ele>365.64</ele>
        <time>2018-03-25T12:52:01Z</time>
      </trkpt>
      <trkpt lat="48.33167" lon="6.81363">
        <ele>365.42</ele>
        <time>2018-03-25T12:52:08Z</time>
      </trkpt>
      <trkpt lat="48.33168" lon="6.81355">
        <ele>366.19</ele>
        <time>2018-03-25T12:52:13Z</time>
      </trkpt>
      <trkpt lat="48.33167" lon="6.81352">
        <ele>366.09</ele>
        <time>2018-03-25T12:52:15Z</time>
      </trkpt>
      <trkpt lat="48.33165" lon="6.81332">
        <ele>365.89</ele>
        <time>2018-03-25T12:52:28Z</time>
      </trkpt>
      <trkpt lat="48.33166" lon="6.81323">
        <ele>365.92</ele>
        <time>2018-03-25T12:52:33Z</time>
      </trkpt>
      <trkpt lat="48.33165" lon="6.8132">
        <ele>366.3</ele>
        <time>2018-03-25T12:52:35Z</time>
      </trkpt>
      <trkpt lat="48.33164" lon="6.813">
        <ele>366.34</ele>
        <time>2018-03-25T12:52:46Z</time>
      </trkpt>
      <trkpt lat="48.33164" lon="6.81292">
        <ele>365.78</ele>
        <time>2018-03-25T12:52:50Z</time>
      </trkpt>
      <trkpt lat="48.33164" lon="6.81279">
        <ele>365.71</ele>
        <time>2018-03-25T12:52:58Z</time>
      </trkpt>
      <trkpt lat="48.33164" lon="6.81267">
        <ele>365.47</ele>
        <time>2018-03-25T12:53:05Z</time>
      </trkpt>
      <trkpt lat="48.33164" lon="6.81242">
        <ele>365.48</ele>
        <time>2018-03-25T12:53:18Z</time>
      </trkpt>
      <trkpt lat="48.33167" lon="6.81228">
        <ele>365.55</ele>
        <time>2018-03-25T12:53:29Z</time>
      </trkpt>
      <trkpt lat="48.33166" lon="6.81229">
        <ele>365.26</ele>
        <time>2018-03-25T12:53:30Z</time>
      </trkpt>
      <trkpt lat="48.33171" lon="6.81229">
        <ele>364.58</ele>
        <time>2018-03-25T12:53:59Z</time>
      </trkpt>
      <trkpt lat="48.33166" lon="6.81232">
        <ele>365.89</ele>
        <time>2018-03-25T12:54:24Z</time>
      </trkpt>
      <trkpt lat="48.33163" lon="6.81232">
        <ele>365.18</ele>
        <time>2018-03-25T12:54:49Z</time>
      </trkpt>
      <trkpt lat="48.33161" lon="6.81218">
        <ele>365.9</ele>
        <time>2018-03-25T12:55:03Z</time>
      </trkpt>
      <trkpt lat="48.3316" lon="6.812">
        <ele>364.71</ele>
        <time>2018-03-25T12:55:13Z</time>
      </trkpt>
      <trkpt lat="48.33161" lon="6.81192">
        <ele>364.71</ele>
        <time>2018-03-25T12:55:17Z</time>
      </trkpt>
      <trkpt lat="48.3316" lon="6.81182">
        <ele>365.24</ele>
        <time>2018-03-25T12:55:23Z</time>
      </trkpt>
      <trkpt lat="48.33158" lon="6.81173">
        <ele>365.6</ele>
        <time>2018-03-25T12:55:29Z</time>
      </trkpt>
      <trkpt lat="48.33158" lon="6.8115">
        <ele>365.79</ele>
        <time>2018-03-25T12:55:43Z</time>
      </trkpt>
      <trkpt lat="48.33156" lon="6.81123">
        <ele>366.26</ele>
        <time>2018-03-25T12:55:58Z</time>
      </trkpt>
      <trkpt lat="48.33156" lon="6.81102">
        <ele>365.85</ele>
        <time>2018-03-25T12:56:09Z</time>
      </trkpt>
      <trkpt lat="48.33153" lon="6.81079">
        <ele>366.92</ele>
        <time>2018-03-25T12:56:23Z</time>
      </trkpt>
      <trkpt lat="48.33152" lon="6.8106">
        <ele>367.16</ele>
        <time>2018-03-25T12:56:35Z</time>
      </trkpt>
      <trkpt lat="48.33153" lon="6.8103">
        <ele>366.49</ele>
        <time>2018-03-25T12:56:50Z</time>
      </trkpt>
      <trkpt lat="48.33154" lon="6.81022">
        <ele>366.39</ele>
        <time>2018-03-25T12:56:54Z</time>
      </trkpt>
      <trkpt lat="48.33152" lon="6.81016">
        <ele>366.62</ele>
        <time>2018-03-25T12:56:57Z</time>
      </trkpt>
      <trkpt lat="48.3315" lon="6.80999">
        <ele>367.12</ele>
        <time>2018-03-25T12:57:09Z</time>
      </trkpt>
      <trkpt lat="48.33149" lon="6.80973">
        <ele>367.04</ele>
        <time>2018-03-25T12:57:22Z</time>
      </trkpt>
      <trkpt lat="48.33148" lon="6.80965">
        <ele>367.25</ele>
        <time>2018-03-25T12:57:27Z</time>
      </trkpt>
      <trkpt lat="48.33148" lon="6.80955">
        <ele>366.83</ele>
        <time>2018-03-25T12:57:32Z</time>
      </trkpt>
      <trkpt lat="48.33147" lon="6.80949">
        <ele>367.08</ele>
        <time>2018-03-25T12:57:36Z</time>
      </trkpt>
      <trkpt lat="48.33147" lon="6.80927">
        <ele>367.51</ele>
        <time>2018-03-25T12:57:50Z</time>
      </trkpt>
      <trkpt lat="48.33143" lon="6.80905">
        <ele>367.72</ele>
        <time>2018-03-25T12:58:03Z</time>
      </trkpt>
      <trkpt lat="48.33143" lon="6.80882">
        <ele>368.61</ele>
        <time>2018-03-25T12:58:17Z</time>
      </trkpt>
      <trkpt lat="48.3314" lon="6.80862">
        <ele>369.34</ele>
        <time>2018-03-25T12:58:27Z</time>
      </trkpt>
      <trkpt lat="48.33131" lon="6.80833">
        <ele>369.64</ele>
        <time>2018-03-25T12:58:44Z</time>
      </trkpt>
      <trkpt lat="48.33129" lon="6.80828">
        <ele>369.76</ele>
        <time>2018-03-25T12:58:47Z</time>
      </trkpt>
      <trkpt lat="48.33127" lon="6.80822">
        <ele>370.36</ele>
        <time>2018-03-25T12:58:51Z</time>
      </trkpt>
      <trkpt lat="48.3311" lon="6.80801">
        <ele>371.23</ele>
        <time>2018-03-25T12:59:09Z</time>
      </trkpt>
      <trkpt lat="48.33105" lon="6.80795">
        <ele>371.62</ele>
        <time>2018-03-25T12:59:14Z</time>
      </trkpt>
      <trkpt lat="48.33096" lon="6.80787">
        <ele>372.12</ele>
        <time>2018-03-25T12:59:23Z</time>
      </trkpt>
      <trkpt lat="48.33084" lon="6.80771">
        <ele>372.26</ele>
        <time>2018-03-25T12:59:37Z</time>
      </trkpt>
      <trkpt lat="48.33082" lon="6.8077">
        <ele>372.85</ele>
        <time>2018-03-25T12:59:39Z</time>
      </trkpt>
      <trkpt lat="48.33067" lon="6.80754">
        <ele>373.13</ele>
        <time>2018-03-25T12:59:56Z</time>
      </trkpt>
      <trkpt lat="48.33062" lon="6.80753">
        <ele>372.86</ele>
        <time>2018-03-25T13:00:01Z</time>
      </trkpt>
      <trkpt lat="48.33049" lon="6.80753">
        <ele>373.75</ele>
        <time>2018-03-25T13:00:13Z</time>
      </trkpt>
      <trkpt lat="48.33036" lon="6.80758">
        <ele>374.21</ele>
        <time>2018-03-25T13:00:29Z</time>
      </trkpt>
      <trkpt lat="48.33031" lon="6.8076">
        <ele>374.87</ele>
        <time>2018-03-25T13:00:34Z</time>
      </trkpt>
      <trkpt lat="48.33027" lon="6.80763">
        <ele>374.91</ele>
        <time>2018-03-25T13:00:37Z</time>
      </trkpt>
      <trkpt lat="48.33013" lon="6.80768">
        <ele>375.1</ele>
        <time>2018-03-25T13:00:50Z</time>
      </trkpt>
      <trkpt lat="48.33" lon="6.80773">
        <ele>374.97</ele>
        <time>2018-03-25T13:01:04Z</time>
      </trkpt>
      <trkpt lat="48.32984" lon="6.80787">
        <ele>375.8</ele>
        <time>2018-03-25T13:01:23Z</time>
      </trkpt>
      <trkpt lat="48.32971" lon="6.80804">
        <ele>376.19</ele>
        <time>2018-03-25T13:01:36Z</time>
      </trkpt>
      <trkpt lat="48.32961" lon="6.8081">
        <ele>377.17</ele>
        <time>2018-03-25T13:01:51Z</time>
      </trkpt>
      <trkpt lat="48.32958" lon="6.8081">
        <ele>376.78</ele>
        <time>2018-03-25T13:01:58Z</time>
      </trkpt>
      <trkpt lat="48.3296" lon="6.80812">
        <ele>377.38</ele>
        <time>2018-03-25T13:02:11Z</time>
      </trkpt>
      <trkpt lat="48.32963" lon="6.80809">
        <ele>377.41</ele>
        <time>2018-03-25T13:02:24Z</time>
      </trkpt>
      <trkpt lat="48.32971" lon="6.808">
        <ele>375.64</ele>
        <time>2018-03-25T13:02:36Z</time>
      </trkpt>
      <trkpt lat="48.32979" lon="6.80786">
        <ele>374.97</ele>
        <time>2018-03-25T13:02:50Z</time>
      </trkpt>
      <trkpt lat="48.32986" lon="6.80765">
        <ele>374.29</ele>
        <time>2018-03-25T13:03:08Z</time>
      </trkpt>
      <trkpt lat="48.32995" lon="6.80744">
        <ele>373.87</ele>
        <time>2018-03-25T13:03:25Z</time>
      </trkpt>
      <trkpt lat="48.33008" lon="6.80716">
        <ele>372.98</ele>
        <time>2018-03-25T13:03:45Z</time>
      </trkpt>
      <trkpt lat="48.33028" lon="6.80691">
        <ele>371.12</ele>
        <time>2018-03-25T13:04:06Z</time>
      </trkpt>
      <trkpt lat="48.33039" lon="6.80655">
        <ele>371.43</ele>
        <time>2018-03-25T13:04:26Z</time>
      </trkpt>
      <trkpt lat="48.3304" lon="6.80652">
        <ele>371.04</ele>
        <time>2018-03-25T13:04:28Z</time>
      </trkpt>
      <trkpt lat="48.3304" lon="6.80648">
        <ele>370.59</ele>
        <time>2018-03-25T13:04:30Z</time>
      </trkpt>
      <trkpt lat="48.33048" lon="6.80617">
        <ele>371.88</ele>
        <time>2018-03-25T13:04:49Z</time>
      </trkpt>
      <trkpt lat="48.33058" lon="6.80587">
        <ele>372.54</ele>
        <time>2018-03-25T13:05:08Z</time>
      </trkpt>
      <trkpt lat="48.33064" lon="6.80566">
        <ele>372.84</ele>
        <time>2018-03-25T13:05:22Z</time>
      </trkpt>
      <trkpt lat="48.33069" lon="6.80547">
        <ele>373.3</ele>
        <time>2018-03-25T13:05:41Z</time>
      </trkpt>
      <trkpt lat="48.33075" lon="6.80523">
        <ele>374.33</ele>
        <time>2018-03-25T13:05:58Z</time>
      </trkpt>
      <trkpt lat="48.33085" lon="6.80498">
        <ele>374.55</ele>
        <time>2018-03-25T13:06:14Z</time>
      </trkpt>
      <trkpt lat="48.33092" lon="6.80475">
        <ele>375.12</ele>
        <time>2018-03-25T13:06:31Z</time>
      </trkpt>
      <trkpt lat="48.33094" lon="6.80466">
        <ele>375.6</ele>
        <time>2018-03-25T13:06:37Z</time>
      </trkpt>
      <trkpt lat="48.33097" lon="6.80446">
        <ele>375.62</ele>
        <time>2018-03-25T13:06:51Z</time>
      </trkpt>
      <trkpt lat="48.33102" lon="6.80423">
        <ele>375.69</ele>
        <time>2018-03-25T13:07:06Z</time>
      </trkpt>
      <trkpt lat="48.33103" lon="6.80418">
        <ele>375.79</ele>
        <time>2018-03-25T13:07:10Z</time>
      </trkpt>
      <trkpt lat="48.33106" lon="6.80397">
        <ele>375.1</ele>
        <time>2018-03-25T13:07:23Z</time>
      </trkpt>
      <trkpt lat="48.33107" lon="6.8039">
        <ele>375.87</ele>
        <time>2018-03-25T13:07:27Z</time>
      </trkpt>
      <trkpt lat="48.33111" lon="6.80368">
        <ele>376.32</ele>
        <time>2018-03-25T13:07:40Z</time>
      </trkpt>
      <trkpt lat="48.33112" lon="6.80356">
        <ele>376.06</ele>
        <time>2018-03-25T13:07:48Z</time>
      </trkpt>
      <trkpt lat="48.33113" lon="6.8035">
        <ele>376.56</ele>
        <time>2018-03-25T13:07:52Z</time>
      </trkpt>
      <trkpt lat="48.33122" lon="6.80338">
        <ele>376.33</ele>
        <time>2018-03-25T13:08:09Z</time>
      </trkpt>
      <trkpt lat="48.33137" lon="6.80338">
        <ele>376.48</ele>
        <time>2018-03-25T13:08:25Z</time>
      </trkpt>
      <trkpt lat="48.33155" lon="6.8034">
        <ele>376.09</ele>
        <time>2018-03-25T13:08:42Z</time>
      </trkpt>
      <trkpt lat="48.33171" lon="6.80345">
        <ele>375.35</ele>
        <time>2018-03-25T13:08:59Z</time>
      </trkpt>
      <trkpt lat="48.33189" lon="6.80345">
        <ele>374.05</ele>
        <time>2018-03-25T13:09:16Z</time>
      </trkpt>
      <trkpt lat="48.3321" lon="6.80344">
        <ele>374.78</ele>
        <time>2018-03-25T13:09:35Z</time>
      </trkpt>
      <trkpt lat="48.33224" lon="6.8034">
        <ele>374.38</ele>
        <time>2018-03-25T13:09:49Z</time>
      </trkpt>
      <trkpt lat="48.33228" lon="6.80339">
        <ele>374.38</ele>
        <time>2018-03-25T13:09:55Z</time>
      </trkpt>
      <trkpt lat="48.33241" lon="6.80334">
        <ele>374.67</ele>
        <time>2018-03-25T13:10:11Z</time>
      </trkpt>
      <trkpt lat="48.33253" lon="6.80336">
        <ele>373.85</ele>
        <time>2018-03-25T13:10:22Z</time>
      </trkpt>
      <trkpt lat="48.33267" lon="6.80339">
        <ele>373.61</ele>
        <time>2018-03-25T13:10:33Z</time>
      </trkpt>
      <trkpt lat="48.33275" lon="6.80339">
        <ele>373.75</ele>
        <time>2018-03-25T13:10:39Z</time>
      </trkpt>
      <trkpt lat="48.33278" lon="6.8034">
        <ele>373.38</ele>
        <time>2018-03-25T13:10:42Z</time>
      </trkpt>
      <trkpt lat="48.33284" lon="6.80341">
        <ele>374.17</ele>
        <time>2018-03-25T13:10:47Z</time>
      </trkpt>
      <trkpt lat="48.33298" lon="6.80343">
        <ele>373.86</ele>
        <time>2018-03-25T13:10:58Z</time>
      </trkpt>
      <trkpt lat="48.33316" lon="6.80352">
        <ele>372.9</ele>
        <time>2018-03-25T13:11:14Z</time>
      </trkpt>
      <trkpt lat="48.33333" lon="6.80363">
        <ele>373.51</ele>
        <time>2018-03-25T13:11:30Z</time>
      </trkpt>
      <trkpt lat="48.33349" lon="6.80378">
        <ele>373.38</ele>
        <time>2018-03-25T13:11:46Z</time>
      </trkpt>
      <trkpt lat="48.33359" lon="6.80389">
        <ele>372.72</ele>
        <time>2018-03-25T13:11:56Z</time>
      </trkpt>
      <trkpt lat="48.33374" lon="6.80408">
        <ele>372.41</ele>
        <time>2018-03-25T13:12:12Z</time>
      </trkpt>
      <trkpt lat="48.33394" lon="6.80435">
        <ele>373</ele>
        <time>2018-03-25T13:12:34Z</time>
      </trkpt>
      <trkpt lat="48.33403" lon="6.80469">
        <ele>372.63</ele>
        <time>2018-03-25T13:12:50Z</time>
      </trkpt>
      <trkpt lat="48.33408" lon="6.80494">
        <ele>372.3</ele>
        <time>2018-03-25T13:13:10Z</time>
      </trkpt>
      <trkpt lat="48.33419" lon="6.80522">
        <ele>371.76</ele>
        <time>2018-03-25T13:13:29Z</time>
      </trkpt>
      <trkpt lat="48.3342" lon="6.80525">
        <ele>371.07</ele>
        <time>2018-03-25T13:13:30Z</time>
      </trkpt>
      <trkpt lat="48.33424" lon="6.80531">
        <ele>371.05</ele>
        <time>2018-03-25T13:13:36Z</time>
      </trkpt>
      <trkpt lat="48.33435" lon="6.80545">
        <ele>369.79</ele>
        <time>2018-03-25T13:13:51Z</time>
      </trkpt>
      <trkpt lat="48.33446" lon="6.80568">
        <ele>367.84</ele>
        <time>2018-03-25T13:14:09Z</time>
      </trkpt>
      <trkpt lat="48.33447" lon="6.80569">
        <ele>368.16</ele>
        <time>2018-03-25T13:14:10Z</time>
      </trkpt>
      <trkpt lat="48.33449" lon="6.80576">
        <ele>367.91</ele>
        <time>2018-03-25T13:14:14Z</time>
      </trkpt>
      <trkpt lat="48.33456" lon="6.80594">
        <ele>366.82</ele>
        <time>2018-03-25T13:14:32Z</time>
      </trkpt>
      <trkpt lat="48.33469" lon="6.80615">
        <ele>365.2</ele>
        <time>2018-03-25T13:14:51Z</time>
      </trkpt>
      <trkpt lat="48.33471" lon="6.80618">
        <ele>365.42</ele>
        <time>2018-03-25T13:14:54Z</time>
      </trkpt>
      <trkpt lat="48.33484" lon="6.80633">
        <ele>364.72</ele>
        <time>2018-03-25T13:15:09Z</time>
      </trkpt>
      <trkpt lat="48.33488" lon="6.80637">
        <ele>363.41</ele>
        <time>2018-03-25T13:15:14Z</time>
      </trkpt>
      <trkpt lat="48.33491" lon="6.80642">
        <ele>363.57</ele>
        <time>2018-03-25T13:15:18Z</time>
      </trkpt>
      <trkpt lat="48.33504" lon="6.8066">
        <ele>362.12</ele>
        <time>2018-03-25T13:15:35Z</time>
      </trkpt>
      <trkpt lat="48.33507" lon="6.80666">
        <ele>362.02</ele>
        <time>2018-03-25T13:15:39Z</time>
      </trkpt>
      <trkpt lat="48.33509" lon="6.80675">
        <ele>361.99</ele>
        <time>2018-03-25T13:15:44Z</time>
      </trkpt>
      <trkpt lat="48.33512" lon="6.80677">
        <ele>361.19</ele>
        <time>2018-03-25T13:15:47Z</time>
      </trkpt>
      <trkpt lat="48.33519" lon="6.80688">
        <ele>361.17</ele>
        <time>2018-03-25T13:15:56Z</time>
      </trkpt>
      <trkpt lat="48.33525" lon="6.80705">
        <ele>360.18</ele>
        <time>2018-03-25T13:16:07Z</time>
      </trkpt>
      <trkpt lat="48.33534" lon="6.80726">
        <ele>360.09</ele>
        <time>2018-03-25T13:16:21Z</time>
      </trkpt>
      <trkpt lat="48.3354" lon="6.80735">
        <ele>358.56</ele>
        <time>2018-03-25T13:16:29Z</time>
      </trkpt>
      <trkpt lat="48.33546" lon="6.80742">
        <ele>357.78</ele>
        <time>2018-03-25T13:16:35Z</time>
      </trkpt>
      <trkpt lat="48.33558" lon="6.80757">
        <ele>357.32</ele>
        <time>2018-03-25T13:16:48Z</time>
      </trkpt>
      <trkpt lat="48.33565" lon="6.80772">
        <ele>356.93</ele>
        <time>2018-03-25T13:16:58Z</time>
      </trkpt>
      <trkpt lat="48.33574" lon="6.80782">
        <ele>356.41</ele>
        <time>2018-03-25T13:17:08Z</time>
      </trkpt>
      <trkpt lat="48.33576" lon="6.80787">
        <ele>356.1</ele>
        <time>2018-03-25T13:17:11Z</time>
      </trkpt>
      <trkpt lat="48.33582" lon="6.80797">
        <ele>355.46</ele>
        <time>2018-03-25T13:17:18Z</time>
      </trkpt>
      <trkpt lat="48.33586" lon="6.80809">
        <ele>354.74</ele>
        <time>2018-03-25T13:17:25Z</time>
      </trkpt>
      <trkpt lat="48.33594" lon="6.80838">
        <ele>354.09</ele>
        <time>2018-03-25T13:17:39Z</time>
      </trkpt>
      <trkpt lat="48.33597" lon="6.80858">
        <ele>353.88</ele>
        <time>2018-03-25T13:17:48Z</time>
      </trkpt>
      <trkpt lat="48.33599" lon="6.80873">
        <ele>352.98</ele>
        <time>2018-03-25T13:17:55Z</time>
      </trkpt>
      <trkpt lat="48.33601" lon="6.80878">
        <ele>352.78</ele>
        <time>2018-03-25T13:17:58Z</time>
      </trkpt>
      <trkpt lat="48.33601" lon="6.8089">
        <ele>352.46</ele>
        <time>2018-03-25T13:18:05Z</time>
      </trkpt>
      <trkpt lat="48.33588" lon="6.80922">
        <ele>351.53</ele>
        <time>2018-03-25T13:18:28Z</time>
      </trkpt>
      <trkpt lat="48.33587" lon="6.80924">
        <ele>351.62</ele>
        <time>2018-03-25T13:18:30Z</time>
      </trkpt>
      <trkpt lat="48.33572" lon="6.80946">
        <ele>350.84</ele>
        <time>2018-03-25T13:18:43Z</time>
      </trkpt>
      <trkpt lat="48.33565" lon="6.80953">
        <ele>351.73</ele>
        <time>2018-03-25T13:18:52Z</time>
      </trkpt>
      <trkpt lat="48.33549" lon="6.80958">
        <ele>350.82</ele>
        <time>2018-03-25T13:19:07Z</time>
      </trkpt>
      <trkpt lat="48.33537" lon="6.8096">
        <ele>351.06</ele>
        <time>2018-03-25T13:19:23Z</time>
      </trkpt>
      <trkpt lat="48.33521" lon="6.80956">
        <ele>350.55</ele>
        <time>2018-03-25T13:19:39Z</time>
      </trkpt>
      <trkpt lat="48.33517" lon="6.80958">
        <ele>350.09</ele>
        <time>2018-03-25T13:19:42Z</time>
      </trkpt>
      <trkpt lat="48.33514" lon="6.80963">
        <ele>350.46</ele>
        <time>2018-03-25T13:19:52Z</time>
      </trkpt>
      <trkpt lat="48.33515" lon="6.80966">
        <ele>350.57</ele>
        <time>2018-03-25T13:20:16Z</time>
      </trkpt>
      <trkpt lat="48.3352" lon="6.80965">
        <ele>350.21</ele>
        <time>2018-03-25T13:20:26Z</time>
      </trkpt>
      <trkpt lat="48.33528" lon="6.80969">
        <ele>349.95</ele>
        <time>2018-03-25T13:21:01Z</time>
      </trkpt>
      <trkpt lat="48.33532" lon="6.80967">
        <ele>348.83</ele>
        <time>2018-03-25T13:21:27Z</time>
      </trkpt>
      <trkpt lat="48.33529" lon="6.80957">
        <ele>349.55</ele>
        <time>2018-03-25T13:21:55Z</time>
      </trkpt>
      <trkpt lat="48.33528" lon="6.80956">
        <ele>349.03</ele>
        <time>2018-03-25T13:22:24Z</time>
      </trkpt>
      <trkpt lat="48.33533" lon="6.8095">
        <ele>350.2</ele>
        <time>2018-03-25T13:23:05Z</time>
      </trkpt>
      <trkpt lat="48.33536" lon="6.80954">
        <ele>349.96</ele>
        <time>2018-03-25T13:23:24Z</time>
      </trkpt>
      <trkpt lat="48.33539" lon="6.80961">
        <ele>349.47</ele>
        <time>2018-03-25T13:23:48Z</time>
      </trkpt>
      <trkpt lat="48.33534" lon="6.80968">
        <ele>349.22</ele>
        <time>2018-03-25T13:24:11Z</time>
      </trkpt>
      <trkpt lat="48.33529" lon="6.8097">
        <ele>349.27</ele>
        <time>2018-03-25T13:24:20Z</time>
      </trkpt>
      <trkpt lat="48.33533" lon="6.80961">
        <ele>350.08</ele>
        <time>2018-03-25T13:24:39Z</time>
      </trkpt>
      <trkpt lat="48.33533" lon="6.8096">
        <ele>350.22</ele>
        <time>2018-03-25T13:25:02Z</time>
      </trkpt>
      <trkpt lat="48.33535" lon="6.80961">
        <ele>350.1</ele>
        <time>2018-03-25T13:25:10Z</time>
      </trkpt>
      <trkpt lat="48.33536" lon="6.80964">
        <ele>349.88</ele>
        <time>2018-03-25T13:25:38Z</time>
      </trkpt>
      <trkpt lat="48.33535" lon="6.80971">
        <ele>351.28</ele>
        <time>2018-03-25T13:26:04Z</time>
      </trkpt>
      <trkpt lat="48.33539" lon="6.80968">
        <ele>350.56</ele>
        <time>2018-03-25T13:26:25Z</time>
      </trkpt>
      <trkpt lat="48.33542" lon="6.80961">
        <ele>351.13</ele>
        <time>2018-03-25T13:26:54Z</time>
      </trkpt>
      <trkpt lat="48.33536" lon="6.80958">
        <ele>351.23</ele>
        <time>2018-03-25T13:27:23Z</time>
      </trkpt>
      <trkpt lat="48.33535" lon="6.8096">
        <ele>351.58</ele>
        <time>2018-03-25T13:27:43Z</time>
      </trkpt>
      <trkpt lat="48.33538" lon="6.8096">
        <ele>351.51</ele>
        <time>2018-03-25T13:27:53Z</time>
      </trkpt>
      <trkpt lat="48.3354" lon="6.80957">
        <ele>352.36</ele>
        <time>2018-03-25T13:28:19Z</time>
      </trkpt>
      <trkpt lat="48.33543" lon="6.80963">
        <ele>352.61</ele>
        <time>2018-03-25T13:28:39Z</time>
      </trkpt>
      <trkpt lat="48.33542" lon="6.80964">
        <ele>351.78</ele>
        <time>2018-03-25T13:29:00Z</time>
      </trkpt>
      <trkpt lat="48.33544" lon="6.80964">
        <ele>352.52</ele>
        <time>2018-03-25T13:29:18Z</time>
      </trkpt>
      <trkpt lat="48.33534" lon="6.8097">
        <ele>352.78</ele>
        <time>2018-03-25T13:29:48Z</time>
      </trkpt>
      <trkpt lat="48.33536" lon="6.80967">
        <ele>353.07</ele>
        <time>2018-03-25T13:30:16Z</time>
      </trkpt>
      <trkpt lat="48.33537" lon="6.80967">
        <ele>353.62</ele>
        <time>2018-03-25T13:30:42Z</time>
      </trkpt>
      <trkpt lat="48.33526" lon="6.80958">
        <ele>354.13</ele>
        <time>2018-03-25T13:31:01Z</time>
      </trkpt>
      <trkpt lat="48.33517" lon="6.8095">
        <ele>354.34</ele>
        <time>2018-03-25T13:31:14Z</time>
      </trkpt>
      <trkpt lat="48.33508" lon="6.80942">
        <ele>355.35</ele>
        <time>2018-03-25T13:31:28Z</time>
      </trkpt>
      <trkpt lat="48.33489" lon="6.80935">
        <ele>355.62</ele>
        <time>2018-03-25T13:31:45Z</time>
      </trkpt>
      <trkpt lat="48.33464" lon="6.80923">
        <ele>355.73</ele>
        <time>2018-03-25T13:32:06Z</time>
      </trkpt>
      <trkpt lat="48.3344" lon="6.80912">
        <ele>355.68</ele>
        <time>2018-03-25T13:32:25Z</time>
      </trkpt>
      <trkpt lat="48.33423" lon="6.80904">
        <ele>356.47</ele>
        <time>2018-03-25T13:32:39Z</time>
      </trkpt>
      <trkpt lat="48.33403" lon="6.80889">
        <ele>356.85</ele>
        <time>2018-03-25T13:32:56Z</time>
      </trkpt>
      <trkpt lat="48.33392" lon="6.80881">
        <ele>354.09</ele>
        <time>2018-03-25T13:33:06Z</time>
      </trkpt>
      <trkpt lat="48.33387" lon="6.80876">
        <ele>357.25</ele>
        <time>2018-03-25T13:33:13Z</time>
      </trkpt>
      <trkpt lat="48.33386" lon="6.80876">
        <ele>356.94</ele>
        <time>2018-03-25T13:33:14Z</time>
      </trkpt>
      <trkpt lat="48.33375" lon="6.80862">
        <ele>357.73</ele>
        <time>2018-03-25T13:33:29Z</time>
      </trkpt>
      <trkpt lat="48.33353" lon="6.80841">
        <ele>358.72</ele>
        <time>2018-03-25T13:33:55Z</time>
      </trkpt>
      <trkpt lat="48.3335" lon="6.80838">
        <ele>358.42</ele>
        <time>2018-03-25T13:33:58Z</time>
      </trkpt>
      <trkpt lat="48.33343" lon="6.80832">
        <ele>358.99</ele>
        <time>2018-03-25T13:34:06Z</time>
      </trkpt>
      <trkpt lat="48.33337" lon="6.80823">
        <ele>358.57</ele>
        <time>2018-03-25T13:34:14Z</time>
      </trkpt>
      <trkpt lat="48.33322" lon="6.80805">
        <ele>358.76</ele>
        <time>2018-03-25T13:34:30Z</time>
      </trkpt>
      <trkpt lat="48.33317" lon="6.80796">
        <ele>357.8</ele>
        <time>2018-03-25T13:34:37Z</time>
      </trkpt>
      <trkpt lat="48.33309" lon="6.80786">
        <ele>359.22</ele>
        <time>2018-03-25T13:34:43Z</time>
      </trkpt>
      <trkpt lat="48.333" lon="6.80774">
        <ele>359.53</ele>
        <time>2018-03-25T13:34:52Z</time>
      </trkpt>
      <trkpt lat="48.33294" lon="6.80756">
        <ele>359.99</ele>
        <time>2018-03-25T13:35:06Z</time>
      </trkpt>
      <trkpt lat="48.33281" lon="6.80735">
        <ele>360.66</ele>
        <time>2018-03-25T13:35:23Z</time>
      </trkpt>
      <trkpt lat="48.33266" lon="6.8071">
        <ele>361.66</ele>
        <time>2018-03-25T13:35:42Z</time>
      </trkpt>
      <trkpt lat="48.33254" lon="6.80687">
        <ele>361.99</ele>
        <time>2018-03-25T13:35:57Z</time>
      </trkpt>
      <trkpt lat="48.3324" lon="6.80665">
        <ele>361.86</ele>
        <time>2018-03-25T13:36:15Z</time>
      </trkpt>
      <trkpt lat="48.33228" lon="6.80655">
        <ele>362.26</ele>
        <time>2018-03-25T13:36:24Z</time>
      </trkpt>
      <trkpt lat="48.33211" lon="6.80639">
        <ele>362.94</ele>
        <time>2018-03-25T13:36:35Z</time>
      </trkpt>
      <trkpt lat="48.33198" lon="6.80621">
        <ele>363.75</ele>
        <time>2018-03-25T13:36:54Z</time>
      </trkpt>
      <trkpt lat="48.33182" lon="6.80614">
        <ele>364.2</ele>
        <time>2018-03-25T13:37:10Z</time>
      </trkpt>
      <trkpt lat="48.33176" lon="6.80612">
        <ele>364.64</ele>
        <time>2018-03-25T13:37:16Z</time>
      </trkpt>
      <trkpt lat="48.33159" lon="6.80605">
        <ele>365.54</ele>
        <time>2018-03-25T13:37:30Z</time>
      </trkpt>
      <trkpt lat="48.33141" lon="6.80606">
        <ele>363.58</ele>
        <time>2018-03-25T13:37:39Z</time>
      </trkpt>
      <trkpt lat="48.33124" lon="6.80615">
        <ele>363.58</ele>
        <time>2018-03-25T13:37:52Z</time>
      </trkpt>
      <trkpt lat="48.33119" lon="6.80617">
        <ele>366.04</ele>
        <time>2018-03-25T13:37:55Z</time>
      </trkpt>
      <trkpt lat="48.33102" lon="6.80622">
        <ele>366.82</ele>
        <time>2018-03-25T13:38:13Z</time>
      </trkpt>
      <trkpt lat="48.3308" lon="6.80622">
        <ele>367.69</ele>
        <time>2018-03-25T13:38:28Z</time>
      </trkpt>
      <trkpt lat="48.33064" lon="6.80622">
        <ele>368.56</ele>
        <time>2018-03-25T13:38:40Z</time>
      </trkpt>
      <trkpt lat="48.33055" lon="6.80625">
        <ele>369.26</ele>
        <time>2018-03-25T13:38:53Z</time>
      </trkpt>
      <trkpt lat="48.33057" lon="6.80619">
        <ele>368.94</ele>
        <time>2018-03-25T13:39:16Z</time>
      </trkpt>
      <trkpt lat="48.33054" lon="6.80619">
        <ele>369.2</ele>
        <time>2018-03-25T13:39:32Z</time>
      </trkpt>
      <trkpt lat="48.33056" lon="6.80622">
        <ele>369.5</ele>
        <time>2018-03-25T13:39:56Z</time>
      </trkpt>
      <trkpt lat="48.33054" lon="6.80617">
        <ele>370.02</ele>
        <time>2018-03-25T13:40:21Z</time>
      </trkpt>
      <trkpt lat="48.33055" lon="6.80623">
        <ele>370.07</ele>
        <time>2018-03-25T13:40:47Z</time>
      </trkpt>
      <trkpt lat="48.33047" lon="6.80633">
        <ele>370.4</ele>
        <time>2018-03-25T13:41:11Z</time>
      </trkpt>
      <trkpt lat="48.33039" lon="6.80653">
        <ele>370.3</ele>
        <time>2018-03-25T13:41:31Z</time>
      </trkpt>
      <trkpt lat="48.33024" lon="6.80688">
        <ele>371.3</ele>
        <time>2018-03-25T13:41:54Z</time>
      </trkpt>
      <trkpt lat="48.33017" lon="6.80704">
        <ele>371.57</ele>
        <time>2018-03-25T13:42:04Z</time>
      </trkpt>
      <trkpt lat="48.33008" lon="6.80735">
        <ele>373.03</ele>
        <time>2018-03-25T13:42:18Z</time>
      </trkpt>
      <trkpt lat="48.32996" lon="6.80757">
        <ele>373.93</ele>
        <time>2018-03-25T13:42:37Z</time>
      </trkpt>
      <trkpt lat="48.32985" lon="6.80783">
        <ele>374.2</ele>
        <time>2018-03-25T13:42:55Z</time>
      </trkpt>
      <trkpt lat="48.32973" lon="6.808">
        <ele>374.26</ele>
        <time>2018-03-25T13:43:11Z</time>
      </trkpt>
      <trkpt lat="48.32966" lon="6.80806">
        <ele>376.49</ele>
        <time>2018-03-25T13:43:20Z</time>
      </trkpt>
      <trkpt lat="48.32962" lon="6.80812">
        <ele>375.67</ele>
        <time>2018-03-25T13:43:27Z</time>
      </trkpt>
      <trkpt lat="48.32955" lon="6.80825">
        <ele>376.77</ele>
        <time>2018-03-25T13:43:37Z</time>
      </trkpt>
      <trkpt lat="48.32954" lon="6.80829">
        <ele>376.77</ele>
        <time>2018-03-25T13:43:40Z</time>
      </trkpt>
      <trkpt lat="48.3295" lon="6.80837">
        <ele>376.8</ele>
        <time>2018-03-25T13:43:46Z</time>
      </trkpt>
      <trkpt lat="48.32938" lon="6.8085">
        <ele>376.56</ele>
        <time>2018-03-25T13:44:03Z</time>
      </trkpt>
      <trkpt lat="48.32936" lon="6.80852">
        <ele>378.04</ele>
        <time>2018-03-25T13:44:06Z</time>
      </trkpt>
      <trkpt lat="48.32923" lon="6.8087">
        <ele>377.84</ele>
        <time>2018-03-25T13:44:26Z</time>
      </trkpt>
      <trkpt lat="48.32907" lon="6.80892">
        <ele>380.18</ele>
        <time>2018-03-25T13:44:47Z</time>
      </trkpt>
      <trkpt lat="48.32891" lon="6.80916">
        <ele>380.16</ele>
        <time>2018-03-25T13:45:06Z</time>
      </trkpt>
      <trkpt lat="48.32881" lon="6.80934">
        <ele>379.09</ele>
        <time>2018-03-25T13:45:22Z</time>
      </trkpt>
      <trkpt lat="48.3288" lon="6.80936">
        <ele>379.09</ele>
        <time>2018-03-25T13:45:23Z</time>
      </trkpt>
      <trkpt lat="48.32872" lon="6.80959">
        <ele>379.12</ele>
        <time>2018-03-25T13:45:40Z</time>
      </trkpt>
      <trkpt lat="48.32872" lon="6.80963">
        <ele>382.9</ele>
        <time>2018-03-25T13:45:43Z</time>
      </trkpt>
      <trkpt lat="48.32871" lon="6.80964">
        <ele>382.67</ele>
        <time>2018-03-25T13:45:44Z</time>
      </trkpt>
      <trkpt lat="48.32865" lon="6.80976">
        <ele>383.14</ele>
        <time>2018-03-25T13:45:53Z</time>
      </trkpt>
      <trkpt lat="48.32853" lon="6.80987">
        <ele>384.88</ele>
        <time>2018-03-25T13:46:06Z</time>
      </trkpt>
      <trkpt lat="48.32846" lon="6.80997">
        <ele>385.86</ele>
        <time>2018-03-25T13:46:16Z</time>
      </trkpt>
      <trkpt lat="48.32836" lon="6.81011">
        <ele>385.47</ele>
        <time>2018-03-25T13:46:27Z</time>
      </trkpt>
      <trkpt lat="48.32824" lon="6.81025">
        <ele>384.3</ele>
        <time>2018-03-25T13:46:41Z</time>
      </trkpt>
      <trkpt lat="48.32818" lon="6.81031">
        <ele>384.37</ele>
        <time>2018-03-25T13:46:52Z</time>
      </trkpt>
      <trkpt lat="48.32821" lon="6.81028">
        <ele>384.9</ele>
        <time>2018-03-25T13:47:01Z</time>
      </trkpt>
      <trkpt lat="48.32831" lon="6.81009">
        <ele>385.38</ele>
        <time>2018-03-25T13:47:15Z</time>
      </trkpt>
      <trkpt lat="48.32838" lon="6.81002">
        <ele>385.23</ele>
        <time>2018-03-25T13:47:30Z</time>
      </trkpt>
      <trkpt lat="48.32842" lon="6.81006">
        <ele>385.38</ele>
        <time>2018-03-25T13:48:04Z</time>
      </trkpt>
      <trkpt lat="48.32842" lon="6.81007">
        <ele>386.11</ele>
        <time>2018-03-25T13:48:24Z</time>
      </trkpt>
      <trkpt lat="48.32842" lon="6.81008">
        <ele>385.41</ele>
        <time>2018-03-25T13:48:56Z</time>
      </trkpt>
      <trkpt lat="48.32835" lon="6.81015">
        <ele>385.75</ele>
        <time>2018-03-25T13:49:10Z</time>
      </trkpt>
      <trkpt lat="48.32832" lon="6.81019">
        <ele>385.31</ele>
        <time>2018-03-25T13:49:15Z</time>
      </trkpt>
      <trkpt lat="48.32817" lon="6.81034">
        <ele>383.05</ele>
        <time>2018-03-25T13:49:35Z</time>
      </trkpt>
      <trkpt lat="48.32803" lon="6.81036">
        <ele>382.6</ele>
        <time>2018-03-25T13:49:52Z</time>
      </trkpt>
      <trkpt lat="48.32802" lon="6.81034">
        <ele>382.31</ele>
        <time>2018-03-25T13:49:54Z</time>
      </trkpt>
      <trkpt lat="48.32792" lon="6.81029">
        <ele>382.69</ele>
        <time>2018-03-25T13:50:17Z</time>
      </trkpt>
      <trkpt lat="48.32781" lon="6.81032">
        <ele>381.64</ele>
        <time>2018-03-25T13:50:39Z</time>
      </trkpt>
      <trkpt lat="48.32773" lon="6.8105">
        <ele>380.51</ele>
        <time>2018-03-25T13:50:55Z</time>
      </trkpt>
      <trkpt lat="48.32768" lon="6.81069">
        <ele>378.07</ele>
        <time>2018-03-25T13:51:12Z</time>
      </trkpt>
      <trkpt lat="48.3276" lon="6.81095">
        <ele>377.02</ele>
        <time>2018-03-25T13:51:34Z</time>
      </trkpt>
      <trkpt lat="48.32754" lon="6.81116">
        <ele>374.73</ele>
        <time>2018-03-25T13:51:53Z</time>
      </trkpt>
      <trkpt lat="48.32752" lon="6.81125">
        <ele>375.31</ele>
        <time>2018-03-25T13:52:00Z</time>
      </trkpt>
      <trkpt lat="48.32748" lon="6.81146">
        <ele>373.79</ele>
        <time>2018-03-25T13:52:11Z</time>
      </trkpt>
      <trkpt lat="48.32745" lon="6.81162">
        <ele>372.69</ele>
        <time>2018-03-25T13:52:21Z</time>
      </trkpt>
      <trkpt lat="48.32742" lon="6.81172">
        <ele>372.49</ele>
        <time>2018-03-25T13:52:26Z</time>
      </trkpt>
      <trkpt lat="48.32739" lon="6.81184">
        <ele>372.24</ele>
        <time>2018-03-25T13:52:33Z</time>
      </trkpt>
      <trkpt lat="48.32738" lon="6.81197">
        <ele>371.84</ele>
        <time>2018-03-25T13:52:42Z</time>
      </trkpt>
      <trkpt lat="48.32735" lon="6.81213">
        <ele>370.33</ele>
        <time>2018-03-25T13:52:52Z</time>
      </trkpt>
      <trkpt lat="48.32733" lon="6.81219">
        <ele>370.4</ele>
        <time>2018-03-25T13:52:55Z</time>
      </trkpt>
      <trkpt lat="48.3273" lon="6.81234">
        <ele>369.04</ele>
        <time>2018-03-25T13:53:04Z</time>
      </trkpt>
      <trkpt lat="48.32727" lon="6.8124">
        <ele>368.78</ele>
        <time>2018-03-25T13:53:10Z</time>
      </trkpt>
      <trkpt lat="48.32723" lon="6.81242">
        <ele>368.02</ele>
        <time>2018-03-25T13:53:21Z</time>
      </trkpt>
      <trkpt lat="48.32712" lon="6.81223">
        <ele>368</ele>
        <time>2018-03-25T13:53:37Z</time>
      </trkpt>
      <trkpt lat="48.32712" lon="6.81222">
        <ele>367.78</ele>
        <time>2018-03-25T13:53:38Z</time>
      </trkpt>
      <trkpt lat="48.32708" lon="6.81216">
        <ele>368.08</ele>
        <time>2018-03-25T13:53:43Z</time>
      </trkpt>
      <trkpt lat="48.32701" lon="6.81201">
        <ele>368.21</ele>
        <time>2018-03-25T13:53:57Z</time>
      </trkpt>
      <trkpt lat="48.32685" lon="6.81173">
        <ele>368.84</ele>
        <time>2018-03-25T13:54:15Z</time>
      </trkpt>
      <trkpt lat="48.32678" lon="6.81161">
        <ele>368.97</ele>
        <time>2018-03-25T13:54:23Z</time>
      </trkpt>
      <trkpt lat="48.32676" lon="6.81151">
        <ele>369.07</ele>
        <time>2018-03-25T13:54:32Z</time>
      </trkpt>
      <trkpt lat="48.32671" lon="6.81135">
        <ele>369.51</ele>
        <time>2018-03-25T13:54:45Z</time>
      </trkpt>
      <trkpt lat="48.32675" lon="6.81129">
        <ele>369.3</ele>
        <time>2018-03-25T13:55:05Z</time>
      </trkpt>
      <trkpt lat="48.32672" lon="6.8112">
        <ele>369.4</ele>
        <time>2018-03-25T13:55:13Z</time>
      </trkpt>
      <trkpt lat="48.32671" lon="6.81097">
        <ele>370.85</ele>
        <time>2018-03-25T13:55:30Z</time>
      </trkpt>
      <trkpt lat="48.32667" lon="6.81078">
        <ele>370.97</ele>
        <time>2018-03-25T13:55:44Z</time>
      </trkpt>
      <trkpt lat="48.32663" lon="6.81063">
        <ele>371.42</ele>
        <time>2018-03-25T13:55:53Z</time>
      </trkpt>
      <trkpt lat="48.32662" lon="6.81057">
        <ele>371.41</ele>
        <time>2018-03-25T13:55:57Z</time>
      </trkpt>
      <trkpt lat="48.32659" lon="6.8104">
        <ele>372.16</ele>
        <time>2018-03-25T13:56:11Z</time>
      </trkpt>
      <trkpt lat="48.32658" lon="6.81038">
        <ele>372.14</ele>
        <time>2018-03-25T13:56:13Z</time>
      </trkpt>
      <trkpt lat="48.32652" lon="6.81017">
        <ele>373.53</ele>
        <time>2018-03-25T13:56:27Z</time>
      </trkpt>
      <trkpt lat="48.32652" lon="6.81013">
        <ele>373.41</ele>
        <time>2018-03-25T13:56:29Z</time>
      </trkpt>
      <trkpt lat="48.32647" lon="6.8098">
        <ele>373.87</ele>
        <time>2018-03-25T13:56:49Z</time>
      </trkpt>
      <trkpt lat="48.32644" lon="6.80956">
        <ele>374.63</ele>
        <time>2018-03-25T13:57:03Z</time>
      </trkpt>
      <trkpt lat="48.32644" lon="6.80952">
        <ele>374.38</ele>
        <time>2018-03-25T13:57:05Z</time>
      </trkpt>
      <trkpt lat="48.32637" lon="6.80918">
        <ele>375.53</ele>
        <time>2018-03-25T13:57:27Z</time>
      </trkpt>
      <trkpt lat="48.32636" lon="6.80893">
        <ele>376.17</ele>
        <time>2018-03-25T13:57:45Z</time>
      </trkpt>
      <trkpt lat="48.32628" lon="6.80879">
        <ele>376.72</ele>
        <time>2018-03-25T13:57:55Z</time>
      </trkpt>
      <trkpt lat="48.32624" lon="6.80864">
        <ele>376.79</ele>
        <time>2018-03-25T13:58:05Z</time>
      </trkpt>
      <trkpt lat="48.32624" lon="6.80858">
        <ele>376.41</ele>
        <time>2018-03-25T13:58:08Z</time>
      </trkpt>
      <trkpt lat="48.3262" lon="6.80847">
        <ele>376.55</ele>
        <time>2018-03-25T13:58:15Z</time>
      </trkpt>
      <trkpt lat="48.3261" lon="6.80835">
        <ele>376.82</ele>
        <time>2018-03-25T13:58:19Z</time>
      </trkpt>
      <trkpt lat="48.326" lon="6.80821">
        <ele>376.78</ele>
        <time>2018-03-25T13:58:33Z</time>
      </trkpt>
      <trkpt lat="48.32582" lon="6.80804">
        <ele>376.97</ele>
        <time>2018-03-25T13:58:52Z</time>
      </trkpt>
      <trkpt lat="48.32581" lon="6.80803">
        <ele>376.57</ele>
        <time>2018-03-25T13:58:54Z</time>
      </trkpt>
      <trkpt lat="48.32563" lon="6.80787">
        <ele>376.89</ele>
        <time>2018-03-25T13:59:14Z</time>
      </trkpt>
      <trkpt lat="48.32557" lon="6.80782">
        <ele>377.58</ele>
        <time>2018-03-25T13:59:20Z</time>
      </trkpt>
      <trkpt lat="48.32539" lon="6.80771">
        <ele>377.43</ele>
        <time>2018-03-25T13:59:37Z</time>
      </trkpt>
      <trkpt lat="48.32535" lon="6.80771">
        <ele>377.62</ele>
        <time>2018-03-25T13:59:40Z</time>
      </trkpt>
      <trkpt lat="48.32516" lon="6.80762">
        <ele>377.57</ele>
        <time>2018-03-25T13:59:54Z</time>
      </trkpt>
      <trkpt lat="48.32493" lon="6.80754">
        <ele>377.13</ele>
        <time>2018-03-25T14:00:08Z</time>
      </trkpt>
      <trkpt lat="48.32475" lon="6.80747">
        <ele>377.48</ele>
        <time>2018-03-25T14:00:27Z</time>
      </trkpt>
      <trkpt lat="48.32455" lon="6.80744">
        <ele>377.43</ele>
        <time>2018-03-25T14:00:43Z</time>
      </trkpt>
      <trkpt lat="48.32435" lon="6.80745">
        <ele>377.1</ele>
        <time>2018-03-25T14:00:59Z</time>
      </trkpt>
      <trkpt lat="48.32432" lon="6.80745">
        <ele>376.8</ele>
        <time>2018-03-25T14:01:01Z</time>
      </trkpt>
      <trkpt lat="48.32414" lon="6.8075">
        <ele>376.93</ele>
        <time>2018-03-25T14:01:14Z</time>
      </trkpt>
      <trkpt lat="48.32406" lon="6.80753">
        <ele>376.97</ele>
        <time>2018-03-25T14:01:19Z</time>
      </trkpt>
      <trkpt lat="48.32403" lon="6.80754">
        <ele>376.98</ele>
        <time>2018-03-25T14:01:21Z</time>
      </trkpt>
      <trkpt lat="48.32397" lon="6.80756">
        <ele>377.19</ele>
        <time>2018-03-25T14:01:26Z</time>
      </trkpt>
      <trkpt lat="48.32392" lon="6.80758">
        <ele>377.3</ele>
        <time>2018-03-25T14:01:32Z</time>
      </trkpt>
      <trkpt lat="48.32374" lon="6.80769">
        <ele>377.63</ele>
        <time>2018-03-25T14:01:46Z</time>
      </trkpt>
      <trkpt lat="48.32357" lon="6.80775">
        <ele>377.88</ele>
        <time>2018-03-25T14:01:59Z</time>
      </trkpt>
      <trkpt lat="48.32353" lon="6.80779">
        <ele>378.2</ele>
        <time>2018-03-25T14:02:03Z</time>
      </trkpt>
      <trkpt lat="48.32339" lon="6.8079">
        <ele>378.32</ele>
        <time>2018-03-25T14:02:14Z</time>
      </trkpt>
      <trkpt lat="48.32331" lon="6.80792">
        <ele>378.31</ele>
        <time>2018-03-25T14:02:18Z</time>
      </trkpt>
      <trkpt lat="48.32321" lon="6.80804">
        <ele>378.8</ele>
        <time>2018-03-25T14:02:28Z</time>
      </trkpt>
      <trkpt lat="48.32315" lon="6.80811">
        <ele>379.13</ele>
        <time>2018-03-25T14:02:35Z</time>
      </trkpt>
      <trkpt lat="48.32313" lon="6.80816">
        <ele>379.11</ele>
        <time>2018-03-25T14:02:39Z</time>
      </trkpt>
      <trkpt lat="48.32312" lon="6.80818">
        <ele>379.59</ele>
        <time>2018-03-25T14:02:40Z</time>
      </trkpt>
      <trkpt lat="48.32311" lon="6.8082">
        <ele>379.48</ele>
        <time>2018-03-25T14:02:41Z</time>
      </trkpt>
      <trkpt lat="48.3231" lon="6.80822">
        <ele>379.89</ele>
        <time>2018-03-25T14:02:42Z</time>
      </trkpt>
      <trkpt lat="48.32307" lon="6.80827">
        <ele>380.6</ele>
        <time>2018-03-25T14:02:46Z</time>
      </trkpt>
      <trkpt lat="48.32306" lon="6.80834">
        <ele>380.24</ele>
        <time>2018-03-25T14:02:57Z</time>
      </trkpt>
      <trkpt lat="48.32307" lon="6.8083">
        <ele>380.57</ele>
        <time>2018-03-25T14:03:26Z</time>
      </trkpt>
      <trkpt lat="48.32308" lon="6.8083">
        <ele>380.56</ele>
        <time>2018-03-25T14:03:44Z</time>
      </trkpt>
      <trkpt lat="48.32309" lon="6.80829">
        <ele>383.3</ele>
        <time>2018-03-25T14:03:47Z</time>
      </trkpt>
      <trkpt lat="48.3231" lon="6.80829">
        <ele>381.57</ele>
        <time>2018-03-25T14:03:57Z</time>
      </trkpt>
      <trkpt lat="48.32313" lon="6.8083">
        <ele>381.56</ele>
        <time>2018-03-25T14:04:18Z</time>
      </trkpt>
      <trkpt lat="48.32314" lon="6.80831">
        <ele>381.89</ele>
        <time>2018-03-25T14:04:42Z</time>
      </trkpt>
      <trkpt lat="48.32307" lon="6.80831">
        <ele>382.69</ele>
        <time>2018-03-25T14:05:06Z</time>
      </trkpt>
      <trkpt lat="48.32295" lon="6.80848">
        <ele>384.05</ele>
        <time>2018-03-25T14:05:22Z</time>
      </trkpt>
      <trkpt lat="48.32291" lon="6.80871">
        <ele>385.42</ele>
        <time>2018-03-25T14:05:41Z</time>
      </trkpt>
      <trkpt lat="48.32288" lon="6.80894">
        <ele>386.87</ele>
        <time>2018-03-25T14:05:58Z</time>
      </trkpt>
      <trkpt lat="48.32287" lon="6.80916">
        <ele>388.16</ele>
        <time>2018-03-25T14:06:14Z</time>
      </trkpt>
      <trkpt lat="48.3228" lon="6.80942">
        <ele>388.48</ele>
        <time>2018-03-25T14:06:33Z</time>
      </trkpt>
      <trkpt lat="48.3227" lon="6.80962">
        <ele>389.41</ele>
        <time>2018-03-25T14:06:50Z</time>
      </trkpt>
      <trkpt lat="48.32261" lon="6.80971">
        <ele>388.69</ele>
        <time>2018-03-25T14:07:05Z</time>
      </trkpt>
      <trkpt lat="48.32256" lon="6.8098">
        <ele>388.55</ele>
        <time>2018-03-25T14:07:17Z</time>
      </trkpt>
      <trkpt lat="48.32247" lon="6.80998">
        <ele>388.82</ele>
        <time>2018-03-25T14:07:34Z</time>
      </trkpt>
      <trkpt lat="48.32233" lon="6.81031">
        <ele>387.21</ele>
        <time>2018-03-25T14:07:54Z</time>
      </trkpt>
      <trkpt lat="48.32217" lon="6.81044">
        <ele>385.29</ele>
        <time>2018-03-25T14:08:11Z</time>
      </trkpt>
      <trkpt lat="48.32215" lon="6.81045">
        <ele>385.56</ele>
        <time>2018-03-25T14:08:12Z</time>
      </trkpt>
      <trkpt lat="48.32208" lon="6.81059">
        <ele>383.98</ele>
        <time>2018-03-25T14:08:18Z</time>
      </trkpt>
      <trkpt lat="48.32206" lon="6.8106">
        <ele>385.05</ele>
        <time>2018-03-25T14:08:19Z</time>
      </trkpt>
      <trkpt lat="48.32199" lon="6.81069">
        <ele>384.15</ele>
        <time>2018-03-25T14:08:27Z</time>
      </trkpt>
      <trkpt lat="48.32187" lon="6.8108">
        <ele>384.09</ele>
        <time>2018-03-25T14:08:41Z</time>
      </trkpt>
      <trkpt lat="48.32171" lon="6.81084">
        <ele>385.04</ele>
        <time>2018-03-25T14:09:01Z</time>
      </trkpt>
      <trkpt lat="48.32159" lon="6.81089">
        <ele>385.16</ele>
        <time>2018-03-25T14:09:16Z</time>
      </trkpt>
      <trkpt lat="48.32147" lon="6.81085">
        <ele>384.48</ele>
        <time>2018-03-25T14:09:27Z</time>
      </trkpt>
      <trkpt lat="48.32136" lon="6.81071">
        <ele>384.43</ele>
        <time>2018-03-25T14:09:44Z</time>
      </trkpt>
      <trkpt lat="48.32133" lon="6.81067">
        <ele>383.34</ele>
        <time>2018-03-25T14:09:49Z</time>
      </trkpt>
      <trkpt lat="48.32132" lon="6.81066">
        <ele>383.03</ele>
        <time>2018-03-25T14:09:50Z</time>
      </trkpt>
      <trkpt lat="48.32131" lon="6.81065">
        <ele>382.98</ele>
        <time>2018-03-25T14:09:51Z</time>
      </trkpt>
      <trkpt lat="48.32118" lon="6.81057">
        <ele>382.64</ele>
        <time>2018-03-25T14:10:04Z</time>
      </trkpt>
      <trkpt lat="48.3211" lon="6.81049">
        <ele>382.04</ele>
        <time>2018-03-25T14:10:14Z</time>
      </trkpt>
      <trkpt lat="48.32109" lon="6.81048">
        <ele>382.01</ele>
        <time>2018-03-25T14:10:15Z</time>
      </trkpt>
      <trkpt lat="48.32108" lon="6.81047">
        <ele>382.08</ele>
        <time>2018-03-25T14:10:16Z</time>
      </trkpt>
      <trkpt lat="48.32098" lon="6.81031">
        <ele>382.16</ele>
        <time>2018-03-25T14:10:32Z</time>
      </trkpt>
      <trkpt lat="48.32079" lon="6.81006">
        <ele>381.98</ele>
        <time>2018-03-25T14:10:50Z</time>
      </trkpt>
      <trkpt lat="48.32072" lon="6.80992">
        <ele>381.52</ele>
        <time>2018-03-25T14:11:05Z</time>
      </trkpt>
      <trkpt lat="48.32063" lon="6.80975">
        <ele>381.23</ele>
        <time>2018-03-25T14:11:23Z</time>
      </trkpt>
      <trkpt lat="48.32053" lon="6.80955">
        <ele>381.16</ele>
        <time>2018-03-25T14:11:40Z</time>
      </trkpt>
      <trkpt lat="48.32043" lon="6.80937">
        <ele>381.37</ele>
        <time>2018-03-25T14:11:55Z</time>
      </trkpt>
      <trkpt lat="48.32037" lon="6.80925">
        <ele>380.28</ele>
        <time>2018-03-25T14:12:01Z</time>
      </trkpt>
      <trkpt lat="48.32036" lon="6.80922">
        <ele>378.84</ele>
        <time>2018-03-25T14:12:04Z</time>
      </trkpt>
      <trkpt lat="48.32033" lon="6.80923">
        <ele>380.59</ele>
        <time>2018-03-25T14:12:14Z</time>
      </trkpt>
      <trkpt lat="48.32022" lon="6.80926">
        <ele>381.1</ele>
        <time>2018-03-25T14:12:44Z</time>
      </trkpt>
      <trkpt lat="48.32014" lon="6.80929">
        <ele>379.32</ele>
        <time>2018-03-25T14:12:54Z</time>
      </trkpt>
      <trkpt lat="48.32005" lon="6.80927">
        <ele>379.83</ele>
        <time>2018-03-25T14:13:22Z</time>
      </trkpt>
      <trkpt lat="48.32004" lon="6.80928">
        <ele>379.71</ele>
        <time>2018-03-25T14:13:42Z</time>
      </trkpt>
      <trkpt lat="48.32005" lon="6.80926">
        <ele>379.67</ele>
        <time>2018-03-25T14:14:06Z</time>
      </trkpt>
      <trkpt lat="48.32007" lon="6.8093">
        <ele>380.21</ele>
        <time>2018-03-25T14:14:32Z</time>
      </trkpt>
      <trkpt lat="48.32014" lon="6.80929">
        <ele>379.74</ele>
        <time>2018-03-25T14:15:00Z</time>
      </trkpt>
      <trkpt lat="48.32015" lon="6.80928">
        <ele>379.82</ele>
        <time>2018-03-25T14:15:29Z</time>
      </trkpt>
      <trkpt lat="48.32011" lon="6.8093">
        <ele>379.99</ele>
        <time>2018-03-25T14:15:54Z</time>
      </trkpt>
      <trkpt lat="48.32009" lon="6.8093">
        <ele>380.35</ele>
        <time>2018-03-25T14:16:19Z</time>
      </trkpt>
      <trkpt lat="48.32011" lon="6.80924">
        <ele>380.2</ele>
        <time>2018-03-25T14:16:47Z</time>
      </trkpt>
      <trkpt lat="48.32011" lon="6.80927">
        <ele>380.52</ele>
        <time>2018-03-25T14:17:13Z</time>
      </trkpt>
      <trkpt lat="48.32007" lon="6.80949">
        <ele>379.75</ele>
        <time>2018-03-25T14:17:33Z</time>
      </trkpt>
      <trkpt lat="48.32002" lon="6.80978">
        <ele>378.47</ele>
        <time>2018-03-25T14:17:54Z</time>
      </trkpt>
      <trkpt lat="48.32002" lon="6.80981">
        <ele>378.61</ele>
        <time>2018-03-25T14:17:56Z</time>
      </trkpt>
      <trkpt lat="48.32003" lon="6.81003">
        <ele>377.98</ele>
        <time>2018-03-25T14:18:10Z</time>
      </trkpt>
      <trkpt lat="48.32003" lon="6.81037">
        <ele>377.58</ele>
        <time>2018-03-25T14:18:34Z</time>
      </trkpt>
      <trkpt lat="48.32006" lon="6.81056">
        <ele>376.94</ele>
        <time>2018-03-25T14:18:51Z</time>
      </trkpt>
      <trkpt lat="48.32008" lon="6.81088">
        <ele>376.77</ele>
        <time>2018-03-25T14:19:13Z</time>
      </trkpt>
      <trkpt lat="48.32001" lon="6.81113">
        <ele>376.98</ele>
        <time>2018-03-25T14:19:32Z</time>
      </trkpt>
      <trkpt lat="48.31996" lon="6.81124">
        <ele>377.29</ele>
        <time>2018-03-25T14:19:41Z</time>
      </trkpt>
      <trkpt lat="48.31984" lon="6.81152">
        <ele>377.41</ele>
        <time>2018-03-25T14:20:03Z</time>
      </trkpt>
      <trkpt lat="48.31973" lon="6.8118">
        <ele>378.17</ele>
        <time>2018-03-25T14:20:24Z</time>
      </trkpt>
      <trkpt lat="48.31963" lon="6.81208">
        <ele>378.94</ele>
        <time>2018-03-25T14:20:44Z</time>
      </trkpt>
      <trkpt lat="48.31955" lon="6.81238">
        <ele>378.35</ele>
        <time>2018-03-25T14:21:06Z</time>
      </trkpt>
      <trkpt lat="48.3195" lon="6.81267">
        <ele>376.35</ele>
        <time>2018-03-25T14:21:27Z</time>
      </trkpt>
      <trkpt lat="48.31949" lon="6.81275">
        <ele>376.1</ele>
        <time>2018-03-25T14:21:33Z</time>
      </trkpt>
      <trkpt lat="48.31946" lon="6.81313">
        <ele>374.5</ele>
        <time>2018-03-25T14:21:56Z</time>
      </trkpt>
      <trkpt lat="48.31947" lon="6.81348">
        <ele>373.53</ele>
        <time>2018-03-25T14:22:20Z</time>
      </trkpt>
      <trkpt lat="48.31951" lon="6.81382">
        <ele>372.48</ele>
        <time>2018-03-25T14:22:43Z</time>
      </trkpt>
      <trkpt lat="48.31956" lon="6.81411">
        <ele>371.91</ele>
        <time>2018-03-25T14:23:03Z</time>
      </trkpt>
      <trkpt lat="48.31957" lon="6.81413">
        <ele>371.99</ele>
        <time>2018-03-25T14:23:04Z</time>
      </trkpt>
      <trkpt lat="48.31957" lon="6.81439">
        <ele>370.91</ele>
        <time>2018-03-25T14:23:24Z</time>
      </trkpt>
      <trkpt lat="48.31959" lon="6.81478">
        <ele>370.12</ele>
        <time>2018-03-25T14:23:46Z</time>
      </trkpt>
      <trkpt lat="48.3196" lon="6.81482">
        <ele>370.29</ele>
        <time>2018-03-25T14:23:48Z</time>
      </trkpt>
      <trkpt lat="48.3196" lon="6.81484">
        <ele>369.85</ele>
        <time>2018-03-25T14:23:49Z</time>
      </trkpt>
      <trkpt lat="48.31959" lon="6.8152">
        <ele>369.59</ele>
        <time>2018-03-25T14:24:12Z</time>
      </trkpt>
      <trkpt lat="48.31958" lon="6.81552">
        <ele>368.81</ele>
        <time>2018-03-25T14:24:33Z</time>
      </trkpt>
      <trkpt lat="48.31957" lon="6.81573">
        <ele>368.69</ele>
        <time>2018-03-25T14:24:49Z</time>
      </trkpt>
      <trkpt lat="48.31956" lon="6.81596">
        <ele>367.28</ele>
        <time>2018-03-25T14:25:03Z</time>
      </trkpt>
      <trkpt lat="48.31956" lon="6.816">
        <ele>367.97</ele>
        <time>2018-03-25T14:25:05Z</time>
      </trkpt>
      <trkpt lat="48.31955" lon="6.81618">
        <ele>367.68</ele>
        <time>2018-03-25T14:25:19Z</time>
      </trkpt>
      <trkpt lat="48.31958" lon="6.81641">
        <ele>367.37</ele>
        <time>2018-03-25T14:25:36Z</time>
      </trkpt>
      <trkpt lat="48.3196" lon="6.81667">
        <ele>367.23</ele>
        <time>2018-03-25T14:25:55Z</time>
      </trkpt>
      <trkpt lat="48.31962" lon="6.81692">
        <ele>366.88</ele>
        <time>2018-03-25T14:26:11Z</time>
      </trkpt>
      <trkpt lat="48.31959" lon="6.81701">
        <ele>366.71</ele>
        <time>2018-03-25T14:26:16Z</time>
      </trkpt>
      <trkpt lat="48.31959" lon="6.81702">
        <ele>366.47</ele>
        <time>2018-03-25T14:26:17Z</time>
      </trkpt>
      <trkpt lat="48.31954" lon="6.81717">
        <ele>366.69</ele>
        <time>2018-03-25T14:26:26Z</time>
      </trkpt>
      <trkpt lat="48.31947" lon="6.81728">
        <ele>366.77</ele>
        <time>2018-03-25T14:26:36Z</time>
      </trkpt>
      <trkpt lat="48.31946" lon="6.81731">
        <ele>367.07</ele>
        <time>2018-03-25T14:26:38Z</time>
      </trkpt>
      <trkpt lat="48.31937" lon="6.81744">
        <ele>367.32</ele>
        <time>2018-03-25T14:26:50Z</time>
      </trkpt>
      <trkpt lat="48.31927" lon="6.81763">
        <ele>368.1</ele>
        <time>2018-03-25T14:27:04Z</time>
      </trkpt>
      <trkpt lat="48.31923" lon="6.81775">
        <ele>368.29</ele>
        <time>2018-03-25T14:27:13Z</time>
      </trkpt>
      <trkpt lat="48.31921" lon="6.81779">
        <ele>368.91</ele>
        <time>2018-03-25T14:27:16Z</time>
      </trkpt>
      <trkpt lat="48.31913" lon="6.81801">
        <ele>369.09</ele>
        <time>2018-03-25T14:27:33Z</time>
      </trkpt>
      <trkpt lat="48.319" lon="6.81827">
        <ele>368.44</ele>
        <time>2018-03-25T14:27:54Z</time>
      </trkpt>
      <trkpt lat="48.31893" lon="6.81855">
        <ele>369.23</ele>
        <time>2018-03-25T14:28:13Z</time>
      </trkpt>
      <trkpt lat="48.31888" lon="6.81865">
        <ele>368.59</ele>
        <time>2018-03-25T14:28:20Z</time>
      </trkpt>
      <trkpt lat="48.31886" lon="6.81867">
        <ele>368.73</ele>
        <time>2018-03-25T14:28:22Z</time>
      </trkpt>
      <trkpt lat="48.31881" lon="6.81877">
        <ele>369.43</ele>
        <time>2018-03-25T14:28:29Z</time>
      </trkpt>
      <trkpt lat="48.31874" lon="6.81899">
        <ele>369.17</ele>
        <time>2018-03-25T14:28:42Z</time>
      </trkpt>
      <trkpt lat="48.31871" lon="6.81917">
        <ele>368.95</ele>
        <time>2018-03-25T14:28:54Z</time>
      </trkpt>
      <trkpt lat="48.31869" lon="6.8193">
        <ele>368.42</ele>
        <time>2018-03-25T14:29:01Z</time>
      </trkpt>
      <trkpt lat="48.31874" lon="6.81957">
        <ele>369.12</ele>
        <time>2018-03-25T14:29:20Z</time>
      </trkpt>
      <trkpt lat="48.31876" lon="6.81962">
        <ele>368.82</ele>
        <time>2018-03-25T14:29:44Z</time>
      </trkpt>
      <trkpt lat="48.31882" lon="6.8197">
        <ele>368.66</ele>
        <time>2018-03-25T14:30:10Z</time>
      </trkpt>
      <trkpt lat="48.3188" lon="6.81965">
        <ele>368.9</ele>
        <time>2018-03-25T14:30:37Z</time>
      </trkpt>
      <trkpt lat="48.3188" lon="6.81968">
        <ele>368.97</ele>
        <time>2018-03-25T14:31:03Z</time>
      </trkpt>
      <trkpt lat="48.31879" lon="6.81969">
        <ele>369.08</ele>
        <time>2018-03-25T14:31:26Z</time>
      </trkpt>
      <trkpt lat="48.3188" lon="6.81978">
        <ele>369.27</ele>
        <time>2018-03-25T14:31:53Z</time>
      </trkpt>
      <trkpt lat="48.3188" lon="6.81978">
        <ele>369.68</ele>
        <time>2018-03-25T14:32:19Z</time>
      </trkpt>
      <trkpt lat="48.31877" lon="6.81975">
        <ele>369.9</ele>
        <time>2018-03-25T14:32:50Z</time>
      </trkpt>
      <trkpt lat="48.31879" lon="6.81971">
        <ele>369.37</ele>
        <time>2018-03-25T14:33:19Z</time>
      </trkpt>
      <trkpt lat="48.31888" lon="6.8198">
        <ele>369.44</ele>
        <time>2018-03-25T14:33:42Z</time>
      </trkpt>
      <trkpt lat="48.31903" lon="6.81995">
        <ele>369.12</ele>
        <time>2018-03-25T14:34:06Z</time>
      </trkpt>
      <trkpt lat="48.31908" lon="6.82">
        <ele>368.29</ele>
        <time>2018-03-25T14:34:15Z</time>
      </trkpt>
      <trkpt lat="48.31918" lon="6.8201">
        <ele>367.88</ele>
        <time>2018-03-25T14:34:29Z</time>
      </trkpt>
      <trkpt lat="48.31925" lon="6.82028">
        <ele>367.83</ele>
        <time>2018-03-25T14:34:45Z</time>
      </trkpt>
      <trkpt lat="48.31936" lon="6.82044">
        <ele>367.32</ele>
        <time>2018-03-25T14:35:01Z</time>
      </trkpt>
      <trkpt lat="48.31942" lon="6.82052">
        <ele>366.94</ele>
        <time>2018-03-25T14:35:09Z</time>
      </trkpt>
      <trkpt lat="48.31947" lon="6.82058">
        <ele>366.65</ele>
        <time>2018-03-25T14:35:14Z</time>
      </trkpt>
      <trkpt lat="48.3196" lon="6.82077">
        <ele>366.16</ele>
        <time>2018-03-25T14:35:30Z</time>
      </trkpt>
      <trkpt lat="48.3197" lon="6.8209">
        <ele>365.49</ele>
        <time>2018-03-25T14:35:42Z</time>
      </trkpt>
      <trkpt lat="48.3198" lon="6.82106">
        <ele>365.31</ele>
        <time>2018-03-25T14:35:55Z</time>
      </trkpt>
      <trkpt lat="48.31992" lon="6.82125">
        <ele>364.06</ele>
        <time>2018-03-25T14:36:11Z</time>
      </trkpt>
      <trkpt lat="48.32004" lon="6.82138">
        <ele>363.43</ele>
        <time>2018-03-25T14:36:26Z</time>
      </trkpt>
      <trkpt lat="48.32018" lon="6.82153">
        <ele>362.38</ele>
        <time>2018-03-25T14:36:43Z</time>
      </trkpt>
      <trkpt lat="48.32023" lon="6.82162">
        <ele>362.19</ele>
        <time>2018-03-25T14:36:50Z</time>
      </trkpt>
      <trkpt lat="48.32038" lon="6.82182">
        <ele>362.28</ele>
        <time>2018-03-25T14:37:06Z</time>
      </trkpt>
      <trkpt lat="48.32053" lon="6.82202">
        <ele>361.51</ele>
        <time>2018-03-25T14:37:22Z</time>
      </trkpt>
      <trkpt lat="48.32064" lon="6.82219">
        <ele>361.75</ele>
        <time>2018-03-25T14:37:37Z</time>
      </trkpt>
      <trkpt lat="48.32079" lon="6.82239">
        <ele>361.23</ele>
        <time>2018-03-25T14:37:53Z</time>
      </trkpt>
      <trkpt lat="48.32084" lon="6.82249">
        <ele>360.57</ele>
        <time>2018-03-25T14:38:00Z</time>
      </trkpt>
      <trkpt lat="48.32087" lon="6.82256">
        <ele>360.49</ele>
        <time>2018-03-25T14:38:05Z</time>
      </trkpt>
      <trkpt lat="48.32089" lon="6.82259">
        <ele>360.29</ele>
        <time>2018-03-25T14:38:08Z</time>
      </trkpt>
      <trkpt lat="48.32094" lon="6.82266">
        <ele>360.48</ele>
        <time>2018-03-25T14:38:13Z</time>
      </trkpt>
      <trkpt lat="48.32105" lon="6.82284">
        <ele>360.23</ele>
        <time>2018-03-25T14:38:27Z</time>
      </trkpt>
      <trkpt lat="48.32109" lon="6.82287">
        <ele>359.99</ele>
        <time>2018-03-25T14:38:31Z</time>
      </trkpt>
      <trkpt lat="48.32123" lon="6.82308">
        <ele>359.24</ele>
        <time>2018-03-25T14:38:47Z</time>
      </trkpt>
      <trkpt lat="48.32136" lon="6.82324">
        <ele>358.44</ele>
        <time>2018-03-25T14:39:01Z</time>
      </trkpt>
      <trkpt lat="48.32145" lon="6.8234">
        <ele>357.9</ele>
        <time>2018-03-25T14:39:15Z</time>
      </trkpt>
      <trkpt lat="48.32152" lon="6.82359">
        <ele>357.1</ele>
        <time>2018-03-25T14:39:30Z</time>
      </trkpt>
      <trkpt lat="48.32152" lon="6.82363">
        <ele>356.8</ele>
        <time>2018-03-25T14:39:32Z</time>
      </trkpt>
      <trkpt lat="48.32155" lon="6.82368">
        <ele>357.07</ele>
        <time>2018-03-25T14:39:39Z</time>
      </trkpt>
      <trkpt lat="48.32162" lon="6.82399">
        <ele>356.4</ele>
        <time>2018-03-25T14:39:57Z</time>
      </trkpt>
      <trkpt lat="48.32167" lon="6.82424">
        <ele>355.52</ele>
        <time>2018-03-25T14:40:11Z</time>
      </trkpt>
      <trkpt lat="48.32176" lon="6.82452">
        <ele>355.05</ele>
        <time>2018-03-25T14:40:28Z</time>
      </trkpt>
      <trkpt lat="48.32176" lon="6.82459">
        <ele>354.78</ele>
        <time>2018-03-25T14:40:32Z</time>
      </trkpt>
      <trkpt lat="48.32184" lon="6.82486">
        <ele>353.82</ele>
        <time>2018-03-25T14:40:49Z</time>
      </trkpt>
      <trkpt lat="48.32184" lon="6.82514">
        <ele>353.07</ele>
        <time>2018-03-25T14:41:04Z</time>
      </trkpt>
      <trkpt lat="48.32186" lon="6.82538">
        <ele>351.77</ele>
        <time>2018-03-25T14:41:20Z</time>
      </trkpt>
      <trkpt lat="48.32181" lon="6.82571">
        <ele>350.78</ele>
        <time>2018-03-25T14:41:39Z</time>
      </trkpt>
      <trkpt lat="48.32174" lon="6.82606">
        <ele>348.23</ele>
        <time>2018-03-25T14:41:58Z</time>
      </trkpt>
      <trkpt lat="48.32167" lon="6.8264">
        <ele>347.25</ele>
        <time>2018-03-25T14:42:18Z</time>
      </trkpt>
      <trkpt lat="48.32161" lon="6.82666">
        <ele>346.07</ele>
        <time>2018-03-25T14:42:36Z</time>
      </trkpt>
      <trkpt lat="48.3216" lon="6.82668">
        <ele>346.1</ele>
        <time>2018-03-25T14:42:39Z</time>
      </trkpt>
      <trkpt lat="48.32158" lon="6.82675">
        <ele>345.33</ele>
        <time>2018-03-25T14:42:43Z</time>
      </trkpt>
      <trkpt lat="48.32154" lon="6.82691">
        <ele>345.19</ele>
        <time>2018-03-25T14:42:58Z</time>
      </trkpt>
      <trkpt lat="48.32156" lon="6.82703">
        <ele>345.21</ele>
        <time>2018-03-25T14:43:12Z</time>
      </trkpt>
      <trkpt lat="48.3216" lon="6.8271">
        <ele>345.67</ele>
        <time>2018-03-25T14:43:19Z</time>
      </trkpt>
      <trkpt lat="48.32167" lon="6.82715">
        <ele>345.4</ele>
        <time>2018-03-25T14:43:32Z</time>
      </trkpt>
      <trkpt lat="48.32168" lon="6.82715">
        <ele>346.02</ele>
        <time>2018-03-25T14:43:33Z</time>
      </trkpt>
      <trkpt lat="48.32176" lon="6.82723">
        <ele>346.06</ele>
        <time>2018-03-25T14:43:47Z</time>
      </trkpt>
      <trkpt lat="48.32185" lon="6.82731">
        <ele>346.05</ele>
        <time>2018-03-25T14:44:01Z</time>
      </trkpt>
      <trkpt lat="48.32198" lon="6.82739">
        <ele>346.55</ele>
        <time>2018-03-25T14:44:14Z</time>
      </trkpt>
      <trkpt lat="48.32213" lon="6.82739">
        <ele>347.11</ele>
        <time>2018-03-25T14:44:28Z</time>
      </trkpt>
      <trkpt lat="48.32228" lon="6.82733">
        <ele>348.09</ele>
        <time>2018-03-25T14:44:42Z</time>
      </trkpt>
      <trkpt lat="48.32229" lon="6.82733">
        <ele>348.13</ele>
        <time>2018-03-25T14:44:43Z</time>
      </trkpt>
      <trkpt lat="48.32244" lon="6.82737">
        <ele>348.93</ele>
        <time>2018-03-25T14:44:57Z</time>
      </trkpt>
      <trkpt lat="48.32262" lon="6.82734">
        <ele>349.92</ele>
        <time>2018-03-25T14:45:11Z</time>
      </trkpt>
      <trkpt lat="48.32273" lon="6.8273">
        <ele>350.51</ele>
        <time>2018-03-25T14:45:23Z</time>
      </trkpt>
      <trkpt lat="48.32278" lon="6.8273">
        <ele>350.5</ele>
        <time>2018-03-25T14:45:27Z</time>
      </trkpt>
      <trkpt lat="48.32281" lon="6.82731">
        <ele>350.54</ele>
        <time>2018-03-25T14:45:29Z</time>
      </trkpt>
      <trkpt lat="48.32295" lon="6.82735">
        <ele>350.78</ele>
        <time>2018-03-25T14:45:42Z</time>
      </trkpt>
      <trkpt lat="48.32297" lon="6.82738">
        <ele>351.37</ele>
        <time>2018-03-25T14:45:45Z</time>
      </trkpt>
      <trkpt lat="48.32299" lon="6.82741">
        <ele>351.43</ele>
        <time>2018-03-25T14:45:48Z</time>
      </trkpt>
      <trkpt lat="48.32306" lon="6.82746">
        <ele>351.54</ele>
        <time>2018-03-25T14:45:56Z</time>
      </trkpt>
      <trkpt lat="48.32313" lon="6.82749">
        <ele>351.83</ele>
        <time>2018-03-25T14:46:10Z</time>
      </trkpt>
      <trkpt lat="48.32315" lon="6.82749">
        <ele>352.09</ele>
        <time>2018-03-25T14:46:30Z</time>
      </trkpt>
    </trkseg>
  </trk>
</gpx>